<?xml version="1.0" encoding="UTF-8" standalone="no" ?>
<gpx xmlns="http://www.topografix.com/GPX/1/1" xmlns:xsi="http://www.w3.org/2001/XMLSchema-instance" xsi:schemaLocation="http://www.topografix.com/GPX/1/1 http://www.topografix.com/GPX/1/1/gpx.xsd" version="1.1" creator="VisuGPX - https://www.visugpx.com">
  <metadata>
    <name>Les hauts de Palalda</name>
    <desc><![CDATA[
]]></desc>
  </metadata>
  <trk>
    <name><![CDATA[Les hauts de Palalda]]></name>
    <trkseg>
      <trkpt lat="42.46089" lon="2.6423">
        <ele>287.62</ele>
        <time>2017-05-02T06:54:22Z</time>
      </trkpt>
      <trkpt lat="42.4609" lon="2.6423">
        <ele>287.62</ele>
        <time>2017-05-02T06:54:23Z</time>
      </trkpt>
      <trkpt lat="42.4609" lon="2.6423">
        <ele>261.99</ele>
        <time>2017-05-02T06:54:27Z</time>
      </trkpt>
      <trkpt lat="42.4609" lon="2.6423">
        <ele>261.99</ele>
        <time>2017-05-02T06:54:28Z</time>
      </trkpt>
      <trkpt lat="42.46089" lon="2.64232">
        <ele>262.52</ele>
        <time>2017-05-02T06:54:39Z</time>
      </trkpt>
      <trkpt lat="42.46087" lon="2.64239">
        <ele>262.56</ele>
        <time>2017-05-02T06:54:43Z</time>
      </trkpt>
      <trkpt lat="42.46085" lon="2.64259">
        <ele>262.81</ele>
        <time>2017-05-02T06:54:52Z</time>
      </trkpt>
      <trkpt lat="42.46086" lon="2.64281">
        <ele>263.87</ele>
        <time>2017-05-02T06:55:01Z</time>
      </trkpt>
      <trkpt lat="42.46088" lon="2.64303">
        <ele>264.81</ele>
        <time>2017-05-02T06:55:08Z</time>
      </trkpt>
      <trkpt lat="42.46082" lon="2.64318">
        <ele>265.68</ele>
        <time>2017-05-02T06:55:14Z</time>
      </trkpt>
      <trkpt lat="42.46082" lon="2.6433">
        <ele>265.98</ele>
        <time>2017-05-02T06:55:18Z</time>
      </trkpt>
      <trkpt lat="42.46097" lon="2.64354">
        <ele>265.79</ele>
        <time>2017-05-02T06:55:25Z</time>
      </trkpt>
      <trkpt lat="42.46119" lon="2.64361">
        <ele>264.6</ele>
        <time>2017-05-02T06:55:30Z</time>
      </trkpt>
      <trkpt lat="42.46131" lon="2.6436">
        <ele>263.49</ele>
        <time>2017-05-02T06:55:32Z</time>
      </trkpt>
      <trkpt lat="42.46181" lon="2.64373">
        <ele>263.3</ele>
        <time>2017-05-02T06:55:39Z</time>
      </trkpt>
      <trkpt lat="42.46233" lon="2.64393">
        <ele>260.41</ele>
        <time>2017-05-02T06:55:45Z</time>
      </trkpt>
      <trkpt lat="42.4625" lon="2.64406">
        <ele>259.45</ele>
        <time>2017-05-02T06:55:47Z</time>
      </trkpt>
      <trkpt lat="42.46272" lon="2.6443">
        <ele>257.52</ele>
        <time>2017-05-02T06:55:50Z</time>
      </trkpt>
      <trkpt lat="42.4628" lon="2.64438">
        <ele>256.59</ele>
        <time>2017-05-02T06:55:51Z</time>
      </trkpt>
      <trkpt lat="42.46294" lon="2.64457">
        <ele>255.67</ele>
        <time>2017-05-02T06:55:53Z</time>
      </trkpt>
      <trkpt lat="42.46312" lon="2.64494">
        <ele>254.52</ele>
        <time>2017-05-02T06:55:57Z</time>
      </trkpt>
      <trkpt lat="42.46321" lon="2.64505">
        <ele>254.48</ele>
        <time>2017-05-02T06:55:59Z</time>
      </trkpt>
      <trkpt lat="42.46345" lon="2.64519">
        <ele>255.96</ele>
        <time>2017-05-02T06:56:06Z</time>
      </trkpt>
      <trkpt lat="42.46364" lon="2.64532">
        <ele>257.82</ele>
        <time>2017-05-02T06:56:14Z</time>
      </trkpt>
      <trkpt lat="42.46372" lon="2.64542">
        <ele>258.56</ele>
        <time>2017-05-02T06:56:18Z</time>
      </trkpt>
      <trkpt lat="42.46383" lon="2.64535">
        <ele>258.33</ele>
        <time>2017-05-02T06:56:22Z</time>
      </trkpt>
      <trkpt lat="42.46383" lon="2.6453">
        <ele>258.61</ele>
        <time>2017-05-02T06:56:23Z</time>
      </trkpt>
      <trkpt lat="42.46389" lon="2.64482">
        <ele>259.39</ele>
        <time>2017-05-02T06:56:32Z</time>
      </trkpt>
      <trkpt lat="42.46395" lon="2.64432">
        <ele>259.8</ele>
        <time>2017-05-02T06:56:40Z</time>
      </trkpt>
      <trkpt lat="42.46409" lon="2.64411">
        <ele>258.06</ele>
        <time>2017-05-02T06:56:45Z</time>
      </trkpt>
      <trkpt lat="42.4643" lon="2.64422">
        <ele>257.53</ele>
        <time>2017-05-02T06:56:49Z</time>
      </trkpt>
      <trkpt lat="42.46447" lon="2.64457">
        <ele>255.75</ele>
        <time>2017-05-02T06:56:53Z</time>
      </trkpt>
      <trkpt lat="42.46473" lon="2.64496">
        <ele>253.37</ele>
        <time>2017-05-02T06:56:58Z</time>
      </trkpt>
      <trkpt lat="42.46509" lon="2.64513">
        <ele>251.82</ele>
        <time>2017-05-02T06:57:03Z</time>
      </trkpt>
      <trkpt lat="42.46529" lon="2.64532">
        <ele>250.33</ele>
        <time>2017-05-02T06:57:08Z</time>
      </trkpt>
      <trkpt lat="42.46537" lon="2.6452">
        <ele>250.65</ele>
        <time>2017-05-02T06:57:13Z</time>
      </trkpt>
      <trkpt lat="42.46538" lon="2.64517">
        <ele>250.89</ele>
        <time>2017-05-02T06:57:17Z</time>
      </trkpt>
      <trkpt lat="42.46539" lon="2.64513">
        <ele>250.9</ele>
        <time>2017-05-02T06:57:26Z</time>
      </trkpt>
      <trkpt lat="42.46541" lon="2.6451">
        <ele>250.86</ele>
        <time>2017-05-02T06:57:28Z</time>
      </trkpt>
      <trkpt lat="42.4655" lon="2.64504">
        <ele>250.48</ele>
        <time>2017-05-02T06:57:33Z</time>
      </trkpt>
      <trkpt lat="42.46552" lon="2.64505">
        <ele>251.35</ele>
        <time>2017-05-02T06:57:34Z</time>
      </trkpt>
      <trkpt lat="42.46585" lon="2.64527">
        <ele>251.57</ele>
        <time>2017-05-02T06:57:43Z</time>
      </trkpt>
      <trkpt lat="42.466" lon="2.64538">
        <ele>252.37</ele>
        <time>2017-05-02T06:57:49Z</time>
      </trkpt>
      <trkpt lat="42.46626" lon="2.64547">
        <ele>252.96</ele>
        <time>2017-05-02T06:57:56Z</time>
      </trkpt>
      <trkpt lat="42.46669" lon="2.64561">
        <ele>253.15</ele>
        <time>2017-05-02T06:58:05Z</time>
      </trkpt>
      <trkpt lat="42.46714" lon="2.64574">
        <ele>252.1</ele>
        <time>2017-05-02T06:58:14Z</time>
      </trkpt>
      <trkpt lat="42.46759" lon="2.64593">
        <ele>251.46</ele>
        <time>2017-05-02T06:58:23Z</time>
      </trkpt>
      <trkpt lat="42.46763" lon="2.64594">
        <ele>251.33</ele>
        <time>2017-05-02T06:58:24Z</time>
      </trkpt>
      <trkpt lat="42.46813" lon="2.64633">
        <ele>249.99</ele>
        <time>2017-05-02T06:58:35Z</time>
      </trkpt>
      <trkpt lat="42.46822" lon="2.64641">
        <ele>248.42</ele>
        <time>2017-05-02T06:58:37Z</time>
      </trkpt>
      <trkpt lat="42.46832" lon="2.64648">
        <ele>248.27</ele>
        <time>2017-05-02T06:58:39Z</time>
      </trkpt>
      <trkpt lat="42.46848" lon="2.64666">
        <ele>249.68</ele>
        <time>2017-05-02T06:58:43Z</time>
      </trkpt>
      <trkpt lat="42.46876" lon="2.64708">
        <ele>247.96</ele>
        <time>2017-05-02T06:58:51Z</time>
      </trkpt>
      <trkpt lat="42.46886" lon="2.64724">
        <ele>249.46</ele>
        <time>2017-05-02T06:58:54Z</time>
      </trkpt>
      <trkpt lat="42.46913" lon="2.64776">
        <ele>248.8</ele>
        <time>2017-05-02T06:59:03Z</time>
      </trkpt>
      <trkpt lat="42.46923" lon="2.64804">
        <ele>247.39</ele>
        <time>2017-05-02T06:59:07Z</time>
      </trkpt>
      <trkpt lat="42.46931" lon="2.64825">
        <ele>247.55</ele>
        <time>2017-05-02T06:59:10Z</time>
      </trkpt>
      <trkpt lat="42.4695" lon="2.64907">
        <ele>246.26</ele>
        <time>2017-05-02T06:59:20Z</time>
      </trkpt>
      <trkpt lat="42.46965" lon="2.6494">
        <ele>246.07</ele>
        <time>2017-05-02T06:59:24Z</time>
      </trkpt>
      <trkpt lat="42.46978" lon="2.64976">
        <ele>244.59</ele>
        <time>2017-05-02T06:59:28Z</time>
      </trkpt>
      <trkpt lat="42.46982" lon="2.65028">
        <ele>243.28</ele>
        <time>2017-05-02T06:59:34Z</time>
      </trkpt>
      <trkpt lat="42.46982" lon="2.65043">
        <ele>242.48</ele>
        <time>2017-05-02T06:59:36Z</time>
      </trkpt>
      <trkpt lat="42.46983" lon="2.65085">
        <ele>242.48</ele>
        <time>2017-05-02T06:59:42Z</time>
      </trkpt>
      <trkpt lat="42.46985" lon="2.65106">
        <ele>242.77</ele>
        <time>2017-05-02T06:59:45Z</time>
      </trkpt>
      <trkpt lat="42.46988" lon="2.65117">
        <ele>243</ele>
        <time>2017-05-02T06:59:47Z</time>
      </trkpt>
      <trkpt lat="42.46991" lon="2.65129">
        <ele>242.53</ele>
        <time>2017-05-02T06:59:49Z</time>
      </trkpt>
      <trkpt lat="42.46994" lon="2.65147">
        <ele>243.2</ele>
        <time>2017-05-02T06:59:52Z</time>
      </trkpt>
      <trkpt lat="42.47003" lon="2.65189">
        <ele>243.08</ele>
        <time>2017-05-02T06:59:58Z</time>
      </trkpt>
      <trkpt lat="42.47" lon="2.65246">
        <ele>243.1</ele>
        <time>2017-05-02T07:00:05Z</time>
      </trkpt>
      <trkpt lat="42.46996" lon="2.6527">
        <ele>243.04</ele>
        <time>2017-05-02T07:00:08Z</time>
      </trkpt>
      <trkpt lat="42.46993" lon="2.65307">
        <ele>242.37</ele>
        <time>2017-05-02T07:00:13Z</time>
      </trkpt>
      <trkpt lat="42.47004" lon="2.65354">
        <ele>242.1</ele>
        <time>2017-05-02T07:00:19Z</time>
      </trkpt>
      <trkpt lat="42.47019" lon="2.65446">
        <ele>238.72</ele>
        <time>2017-05-02T07:00:29Z</time>
      </trkpt>
      <trkpt lat="42.47028" lon="2.65506">
        <ele>239.28</ele>
        <time>2017-05-02T07:00:37Z</time>
      </trkpt>
      <trkpt lat="42.47031" lon="2.65527">
        <ele>239.8</ele>
        <time>2017-05-02T07:00:40Z</time>
      </trkpt>
      <trkpt lat="42.47031" lon="2.65556">
        <ele>240.23</ele>
        <time>2017-05-02T07:00:44Z</time>
      </trkpt>
      <trkpt lat="42.47025" lon="2.65585">
        <ele>239.87</ele>
        <time>2017-05-02T07:00:48Z</time>
      </trkpt>
      <trkpt lat="42.47027" lon="2.65615">
        <ele>239.76</ele>
        <time>2017-05-02T07:00:52Z</time>
      </trkpt>
      <trkpt lat="42.47057" lon="2.65702">
        <ele>240.41</ele>
        <time>2017-05-02T07:01:04Z</time>
      </trkpt>
      <trkpt lat="42.47069" lon="2.65731">
        <ele>240.45</ele>
        <time>2017-05-02T07:01:08Z</time>
      </trkpt>
      <trkpt lat="42.47076" lon="2.65745">
        <ele>239.37</ele>
        <time>2017-05-02T07:01:10Z</time>
      </trkpt>
      <trkpt lat="42.47088" lon="2.65766">
        <ele>239.63</ele>
        <time>2017-05-02T07:01:13Z</time>
      </trkpt>
      <trkpt lat="42.47097" lon="2.65777">
        <ele>238.73</ele>
        <time>2017-05-02T07:01:15Z</time>
      </trkpt>
      <trkpt lat="42.47109" lon="2.65795">
        <ele>238</ele>
        <time>2017-05-02T07:01:18Z</time>
      </trkpt>
      <trkpt lat="42.47126" lon="2.65819">
        <ele>237.76</ele>
        <time>2017-05-02T07:01:22Z</time>
      </trkpt>
      <trkpt lat="42.47142" lon="2.65846">
        <ele>238.2</ele>
        <time>2017-05-02T07:01:26Z</time>
      </trkpt>
      <trkpt lat="42.47195" lon="2.65915">
        <ele>236.35</ele>
        <time>2017-05-02T07:01:36Z</time>
      </trkpt>
      <trkpt lat="42.47212" lon="2.65959">
        <ele>235.2</ele>
        <time>2017-05-02T07:01:41Z</time>
      </trkpt>
      <trkpt lat="42.47216" lon="2.65968">
        <ele>234.36</ele>
        <time>2017-05-02T07:01:42Z</time>
      </trkpt>
      <trkpt lat="42.47223" lon="2.65984">
        <ele>234.77</ele>
        <time>2017-05-02T07:01:44Z</time>
      </trkpt>
      <trkpt lat="42.47252" lon="2.66015">
        <ele>233.36</ele>
        <time>2017-05-02T07:01:50Z</time>
      </trkpt>
      <trkpt lat="42.47262" lon="2.66021">
        <ele>233.67</ele>
        <time>2017-05-02T07:01:52Z</time>
      </trkpt>
      <trkpt lat="42.47278" lon="2.66037">
        <ele>230.19</ele>
        <time>2017-05-02T07:01:56Z</time>
      </trkpt>
      <trkpt lat="42.47295" lon="2.66058">
        <ele>228.45</ele>
        <time>2017-05-02T07:01:59Z</time>
      </trkpt>
      <trkpt lat="42.47323" lon="2.66096">
        <ele>229.47</ele>
        <time>2017-05-02T07:02:04Z</time>
      </trkpt>
      <trkpt lat="42.47337" lon="2.66108">
        <ele>228.57</ele>
        <time>2017-05-02T07:02:06Z</time>
      </trkpt>
      <trkpt lat="42.47373" lon="2.66142">
        <ele>228.71</ele>
        <time>2017-05-02T07:02:12Z</time>
      </trkpt>
      <trkpt lat="42.47411" lon="2.66184">
        <ele>227.21</ele>
        <time>2017-05-02T07:02:20Z</time>
      </trkpt>
      <trkpt lat="42.47443" lon="2.66218">
        <ele>227.62</ele>
        <time>2017-05-02T07:02:27Z</time>
      </trkpt>
      <trkpt lat="42.47492" lon="2.66272">
        <ele>225.96</ele>
        <time>2017-05-02T07:02:38Z</time>
      </trkpt>
      <trkpt lat="42.47508" lon="2.6631">
        <ele>224.65</ele>
        <time>2017-05-02T07:02:44Z</time>
      </trkpt>
      <trkpt lat="42.47531" lon="2.66374">
        <ele>223.02</ele>
        <time>2017-05-02T07:02:55Z</time>
      </trkpt>
      <trkpt lat="42.47531" lon="2.66374">
        <ele>223.19</ele>
        <time>2017-05-02T07:03:00Z</time>
      </trkpt>
      <trkpt lat="42.47532" lon="2.66373">
        <ele>222.75</ele>
        <time>2017-05-02T07:03:15Z</time>
      </trkpt>
      <trkpt lat="42.47532" lon="2.66374">
        <ele>223.63</ele>
        <time>2017-05-02T07:03:25Z</time>
      </trkpt>
      <trkpt lat="42.47532" lon="2.66373">
        <ele>224.19</ele>
        <time>2017-05-02T07:03:37Z</time>
      </trkpt>
      <trkpt lat="42.47532" lon="2.66371">
        <ele>223.83</ele>
        <time>2017-05-02T07:03:54Z</time>
      </trkpt>
      <trkpt lat="42.47532" lon="2.66372">
        <ele>224.2</ele>
        <time>2017-05-02T07:04:18Z</time>
      </trkpt>
      <trkpt lat="42.47532" lon="2.66371">
        <ele>224.2</ele>
        <time>2017-05-02T07:04:46Z</time>
      </trkpt>
      <trkpt lat="42.47533" lon="2.66372">
        <ele>224.25</ele>
        <time>2017-05-02T07:05:12Z</time>
      </trkpt>
      <trkpt lat="42.47538" lon="2.66382">
        <ele>224.14</ele>
        <time>2017-05-02T07:05:17Z</time>
      </trkpt>
      <trkpt lat="42.47554" lon="2.66412">
        <ele>223.56</ele>
        <time>2017-05-02T07:05:26Z</time>
      </trkpt>
      <trkpt lat="42.47572" lon="2.66452">
        <ele>223.21</ele>
        <time>2017-05-02T07:05:35Z</time>
      </trkpt>
      <trkpt lat="42.47589" lon="2.66507">
        <ele>224.04</ele>
        <time>2017-05-02T07:05:44Z</time>
      </trkpt>
      <trkpt lat="42.476" lon="2.66577">
        <ele>223.47</ele>
        <time>2017-05-02T07:05:53Z</time>
      </trkpt>
      <trkpt lat="42.47599" lon="2.6666">
        <ele>221.42</ele>
        <time>2017-05-02T07:06:03Z</time>
      </trkpt>
      <trkpt lat="42.47598" lon="2.66669">
        <ele>221.72</ele>
        <time>2017-05-02T07:06:04Z</time>
      </trkpt>
      <trkpt lat="42.47577" lon="2.66757">
        <ele>220.29</ele>
        <time>2017-05-02T07:06:15Z</time>
      </trkpt>
      <trkpt lat="42.47551" lon="2.66811">
        <ele>218.22</ele>
        <time>2017-05-02T07:06:23Z</time>
      </trkpt>
      <trkpt lat="42.47517" lon="2.66873">
        <ele>217.08</ele>
        <time>2017-05-02T07:06:33Z</time>
      </trkpt>
      <trkpt lat="42.47479" lon="2.66943">
        <ele>217</ele>
        <time>2017-05-02T07:06:44Z</time>
      </trkpt>
      <trkpt lat="42.4745" lon="2.66999">
        <ele>217.17</ele>
        <time>2017-05-02T07:06:52Z</time>
      </trkpt>
      <trkpt lat="42.47439" lon="2.67028">
        <ele>217.12</ele>
        <time>2017-05-02T07:06:58Z</time>
      </trkpt>
      <trkpt lat="42.47438" lon="2.67034">
        <ele>216.99</ele>
        <time>2017-05-02T07:07:03Z</time>
      </trkpt>
      <trkpt lat="42.47439" lon="2.67036">
        <ele>217.58</ele>
        <time>2017-05-02T07:07:22Z</time>
      </trkpt>
      <trkpt lat="42.47439" lon="2.67037">
        <ele>217.5</ele>
        <time>2017-05-02T07:07:53Z</time>
      </trkpt>
      <trkpt lat="42.47439" lon="2.67037">
        <ele>216.83</ele>
        <time>2017-05-02T07:08:04Z</time>
      </trkpt>
      <trkpt lat="42.47438" lon="2.67042">
        <ele>217.8</ele>
        <time>2017-05-02T07:08:08Z</time>
      </trkpt>
      <trkpt lat="42.47441" lon="2.67061">
        <ele>217.9</ele>
        <time>2017-05-02T07:08:17Z</time>
      </trkpt>
      <trkpt lat="42.4744" lon="2.67085">
        <ele>219.56</ele>
        <time>2017-05-02T07:08:25Z</time>
      </trkpt>
      <trkpt lat="42.4744" lon="2.67086">
        <ele>219.34</ele>
        <time>2017-05-02T07:08:30Z</time>
      </trkpt>
      <trkpt lat="42.4744" lon="2.67086">
        <ele>219.42</ele>
        <time>2017-05-02T07:08:40Z</time>
      </trkpt>
      <trkpt lat="42.47435" lon="2.67099">
        <ele>218.93</ele>
        <time>2017-05-02T07:08:46Z</time>
      </trkpt>
      <trkpt lat="42.47425" lon="2.6715">
        <ele>217.6</ele>
        <time>2017-05-02T07:08:54Z</time>
      </trkpt>
      <trkpt lat="42.47417" lon="2.67205">
        <ele>217.28</ele>
        <time>2017-05-02T07:09:02Z</time>
      </trkpt>
      <trkpt lat="42.47416" lon="2.67217">
        <ele>217.32</ele>
        <time>2017-05-02T07:09:04Z</time>
      </trkpt>
      <trkpt lat="42.47418" lon="2.67241">
        <ele>216.77</ele>
        <time>2017-05-02T07:09:08Z</time>
      </trkpt>
      <trkpt lat="42.47427" lon="2.67283">
        <ele>216.34</ele>
        <time>2017-05-02T07:09:15Z</time>
      </trkpt>
      <trkpt lat="42.47422" lon="2.67307">
        <ele>215.01</ele>
        <time>2017-05-02T07:09:19Z</time>
      </trkpt>
      <trkpt lat="42.47405" lon="2.67335">
        <ele>214.68</ele>
        <time>2017-05-02T07:09:24Z</time>
      </trkpt>
      <trkpt lat="42.47406" lon="2.67345">
        <ele>214.01</ele>
        <time>2017-05-02T07:09:25Z</time>
      </trkpt>
      <trkpt lat="42.47412" lon="2.67365">
        <ele>213.36</ele>
        <time>2017-05-02T07:09:27Z</time>
      </trkpt>
      <trkpt lat="42.47441" lon="2.67413">
        <ele>211.96</ele>
        <time>2017-05-02T07:09:32Z</time>
      </trkpt>
      <trkpt lat="42.47466" lon="2.67426">
        <ele>210.2</ele>
        <time>2017-05-02T07:09:35Z</time>
      </trkpt>
      <trkpt lat="42.47482" lon="2.67427">
        <ele>209.84</ele>
        <time>2017-05-02T07:09:37Z</time>
      </trkpt>
      <trkpt lat="42.47512" lon="2.67422">
        <ele>207.64</ele>
        <time>2017-05-02T07:09:41Z</time>
      </trkpt>
      <trkpt lat="42.47546" lon="2.67413">
        <ele>205.91</ele>
        <time>2017-05-02T07:09:46Z</time>
      </trkpt>
      <trkpt lat="42.47597" lon="2.67398">
        <ele>206.93</ele>
        <time>2017-05-02T07:09:55Z</time>
      </trkpt>
      <trkpt lat="42.47624" lon="2.67387">
        <ele>206.52</ele>
        <time>2017-05-02T07:10:00Z</time>
      </trkpt>
      <trkpt lat="42.47642" lon="2.67371">
        <ele>205.66</ele>
        <time>2017-05-02T07:10:04Z</time>
      </trkpt>
      <trkpt lat="42.4766" lon="2.67344">
        <ele>203.74</ele>
        <time>2017-05-02T07:10:09Z</time>
      </trkpt>
      <trkpt lat="42.47677" lon="2.67319">
        <ele>204.29</ele>
        <time>2017-05-02T07:10:13Z</time>
      </trkpt>
      <trkpt lat="42.47698" lon="2.673">
        <ele>203.5</ele>
        <time>2017-05-02T07:10:17Z</time>
      </trkpt>
      <trkpt lat="42.47786" lon="2.67259">
        <ele>201.29</ele>
        <time>2017-05-02T07:10:31Z</time>
      </trkpt>
      <trkpt lat="42.47841" lon="2.67234">
        <ele>199.97</ele>
        <time>2017-05-02T07:10:40Z</time>
      </trkpt>
      <trkpt lat="42.47885" lon="2.67213">
        <ele>197.95</ele>
        <time>2017-05-02T07:10:48Z</time>
      </trkpt>
      <trkpt lat="42.47947" lon="2.67187">
        <ele>199.03</ele>
        <time>2017-05-02T07:11:00Z</time>
      </trkpt>
      <trkpt lat="42.47993" lon="2.67177">
        <ele>199.13</ele>
        <time>2017-05-02T07:11:08Z</time>
      </trkpt>
      <trkpt lat="42.48056" lon="2.67172">
        <ele>198.13</ele>
        <time>2017-05-02T07:11:19Z</time>
      </trkpt>
      <trkpt lat="42.48103" lon="2.6718">
        <ele>199.74</ele>
        <time>2017-05-02T07:11:28Z</time>
      </trkpt>
      <trkpt lat="42.48147" lon="2.67194">
        <ele>200.31</ele>
        <time>2017-05-02T07:11:38Z</time>
      </trkpt>
      <trkpt lat="42.48183" lon="2.67214">
        <ele>200.42</ele>
        <time>2017-05-02T07:11:45Z</time>
      </trkpt>
      <trkpt lat="42.48227" lon="2.67264">
        <ele>199.47</ele>
        <time>2017-05-02T07:11:54Z</time>
      </trkpt>
      <trkpt lat="42.48252" lon="2.67312">
        <ele>198.24</ele>
        <time>2017-05-02T07:12:01Z</time>
      </trkpt>
      <trkpt lat="42.48294" lon="2.67405">
        <ele>197.62</ele>
        <time>2017-05-02T07:12:14Z</time>
      </trkpt>
      <trkpt lat="42.48327" lon="2.67475">
        <ele>197.44</ele>
        <time>2017-05-02T07:12:24Z</time>
      </trkpt>
      <trkpt lat="42.48363" lon="2.67554">
        <ele>196.13</ele>
        <time>2017-05-02T07:12:35Z</time>
      </trkpt>
      <trkpt lat="42.48391" lon="2.67612">
        <ele>197.8</ele>
        <time>2017-05-02T07:12:43Z</time>
      </trkpt>
      <trkpt lat="42.48404" lon="2.67639">
        <ele>196.69</ele>
        <time>2017-05-02T07:12:47Z</time>
      </trkpt>
      <trkpt lat="42.48423" lon="2.67665">
        <ele>196.3</ele>
        <time>2017-05-02T07:12:52Z</time>
      </trkpt>
      <trkpt lat="42.48444" lon="2.67706">
        <ele>196.06</ele>
        <time>2017-05-02T07:12:58Z</time>
      </trkpt>
      <trkpt lat="42.48456" lon="2.67761">
        <ele>196.79</ele>
        <time>2017-05-02T07:13:06Z</time>
      </trkpt>
      <trkpt lat="42.48473" lon="2.67844">
        <ele>198.72</ele>
        <time>2017-05-02T07:13:18Z</time>
      </trkpt>
      <trkpt lat="42.48493" lon="2.67928">
        <ele>197.69</ele>
        <time>2017-05-02T07:13:29Z</time>
      </trkpt>
      <trkpt lat="42.48508" lon="2.68004">
        <ele>195.44</ele>
        <time>2017-05-02T07:13:38Z</time>
      </trkpt>
      <trkpt lat="42.48508" lon="2.68013">
        <ele>195.2</ele>
        <time>2017-05-02T07:13:39Z</time>
      </trkpt>
      <trkpt lat="42.48503" lon="2.68062">
        <ele>196.74</ele>
        <time>2017-05-02T07:13:45Z</time>
      </trkpt>
      <trkpt lat="42.48502" lon="2.68078">
        <ele>196.19</ele>
        <time>2017-05-02T07:13:47Z</time>
      </trkpt>
      <trkpt lat="42.48504" lon="2.6811">
        <ele>194.87</ele>
        <time>2017-05-02T07:13:51Z</time>
      </trkpt>
      <trkpt lat="42.48514" lon="2.68175">
        <ele>194.23</ele>
        <time>2017-05-02T07:13:59Z</time>
      </trkpt>
      <trkpt lat="42.48516" lon="2.68183">
        <ele>194.19</ele>
        <time>2017-05-02T07:14:00Z</time>
      </trkpt>
      <trkpt lat="42.48537" lon="2.6825">
        <ele>193.26</ele>
        <time>2017-05-02T07:14:09Z</time>
      </trkpt>
      <trkpt lat="42.48558" lon="2.68335">
        <ele>192.66</ele>
        <time>2017-05-02T07:14:20Z</time>
      </trkpt>
      <trkpt lat="42.48576" lon="2.68417">
        <ele>190.16</ele>
        <time>2017-05-02T07:14:30Z</time>
      </trkpt>
      <trkpt lat="42.48586" lon="2.68493">
        <ele>189.81</ele>
        <time>2017-05-02T07:14:40Z</time>
      </trkpt>
      <trkpt lat="42.48598" lon="2.68561">
        <ele>187.7</ele>
        <time>2017-05-02T07:14:50Z</time>
      </trkpt>
      <trkpt lat="42.48607" lon="2.68609">
        <ele>186.82</ele>
        <time>2017-05-02T07:14:57Z</time>
      </trkpt>
      <trkpt lat="42.48607" lon="2.68644">
        <ele>185.93</ele>
        <time>2017-05-02T07:15:02Z</time>
      </trkpt>
      <trkpt lat="42.48617" lon="2.68669">
        <ele>186.19</ele>
        <time>2017-05-02T07:15:07Z</time>
      </trkpt>
      <trkpt lat="42.48624" lon="2.68669">
        <ele>185.48</ele>
        <time>2017-05-02T07:15:09Z</time>
      </trkpt>
      <trkpt lat="42.4864" lon="2.68666">
        <ele>186.75</ele>
        <time>2017-05-02T07:15:17Z</time>
      </trkpt>
      <trkpt lat="42.48652" lon="2.68662">
        <ele>187.86</ele>
        <time>2017-05-02T07:15:24Z</time>
      </trkpt>
      <trkpt lat="42.48669" lon="2.68658">
        <ele>188.55</ele>
        <time>2017-05-02T07:15:32Z</time>
      </trkpt>
      <trkpt lat="42.48692" lon="2.68651">
        <ele>190.66</ele>
        <time>2017-05-02T07:15:42Z</time>
      </trkpt>
      <trkpt lat="42.48708" lon="2.68635">
        <ele>191.08</ele>
        <time>2017-05-02T07:15:50Z</time>
      </trkpt>
      <trkpt lat="42.4871" lon="2.68628">
        <ele>190.9</ele>
        <time>2017-05-02T07:15:56Z</time>
      </trkpt>
      <trkpt lat="42.48711" lon="2.68629">
        <ele>191.49</ele>
        <time>2017-05-02T07:16:27Z</time>
      </trkpt>
      <trkpt lat="42.48711" lon="2.68629">
        <ele>191.19</ele>
        <time>2017-05-02T07:16:52Z</time>
      </trkpt>
      <trkpt lat="42.48714" lon="2.68607">
        <ele>191.87</ele>
        <time>2017-05-02T07:17:01Z</time>
      </trkpt>
      <trkpt lat="42.48715" lon="2.68582">
        <ele>191.9</ele>
        <time>2017-05-02T07:17:09Z</time>
      </trkpt>
      <trkpt lat="42.48715" lon="2.68579">
        <ele>191.54</ele>
        <time>2017-05-02T07:17:14Z</time>
      </trkpt>
      <trkpt lat="42.48714" lon="2.68575">
        <ele>191.22</ele>
        <time>2017-05-02T07:17:24Z</time>
      </trkpt>
      <trkpt lat="42.48711" lon="2.68573">
        <ele>191.45</ele>
        <time>2017-05-02T07:17:46Z</time>
      </trkpt>
      <trkpt lat="42.48711" lon="2.68568">
        <ele>191.91</ele>
        <time>2017-05-02T07:17:53Z</time>
      </trkpt>
      <trkpt lat="42.48711" lon="2.68546">
        <ele>192.35</ele>
        <time>2017-05-02T07:18:01Z</time>
      </trkpt>
      <trkpt lat="42.4871" lon="2.68511">
        <ele>192.7</ele>
        <time>2017-05-02T07:18:10Z</time>
      </trkpt>
      <trkpt lat="42.48716" lon="2.68485">
        <ele>193.92</ele>
        <time>2017-05-02T07:18:17Z</time>
      </trkpt>
      <trkpt lat="42.48722" lon="2.6846">
        <ele>194.89</ele>
        <time>2017-05-02T07:18:24Z</time>
      </trkpt>
      <trkpt lat="42.48729" lon="2.68429">
        <ele>196.66</ele>
        <time>2017-05-02T07:18:33Z</time>
      </trkpt>
      <trkpt lat="42.48735" lon="2.68396">
        <ele>198.68</ele>
        <time>2017-05-02T07:18:42Z</time>
      </trkpt>
      <trkpt lat="42.48742" lon="2.68362">
        <ele>200.34</ele>
        <time>2017-05-02T07:18:51Z</time>
      </trkpt>
      <trkpt lat="42.48748" lon="2.68329">
        <ele>201.59</ele>
        <time>2017-05-02T07:19:00Z</time>
      </trkpt>
      <trkpt lat="42.48754" lon="2.6829">
        <ele>202.92</ele>
        <time>2017-05-02T07:19:10Z</time>
      </trkpt>
      <trkpt lat="42.48759" lon="2.68253">
        <ele>204.87</ele>
        <time>2017-05-02T07:19:20Z</time>
      </trkpt>
      <trkpt lat="42.48761" lon="2.68211">
        <ele>206.93</ele>
        <time>2017-05-02T07:19:31Z</time>
      </trkpt>
      <trkpt lat="42.48755" lon="2.68171">
        <ele>206.7</ele>
        <time>2017-05-02T07:19:40Z</time>
      </trkpt>
      <trkpt lat="42.48749" lon="2.68139">
        <ele>207.14</ele>
        <time>2017-05-02T07:19:46Z</time>
      </trkpt>
      <trkpt lat="42.4874" lon="2.68098">
        <ele>205.77</ele>
        <time>2017-05-02T07:19:53Z</time>
      </trkpt>
      <trkpt lat="42.48727" lon="2.6806">
        <ele>204.92</ele>
        <time>2017-05-02T07:20:01Z</time>
      </trkpt>
      <trkpt lat="42.48712" lon="2.6803">
        <ele>206.24</ele>
        <time>2017-05-02T07:20:09Z</time>
      </trkpt>
      <trkpt lat="42.4871" lon="2.68001">
        <ele>206.35</ele>
        <time>2017-05-02T07:20:16Z</time>
      </trkpt>
      <trkpt lat="42.48708" lon="2.67966">
        <ele>207.25</ele>
        <time>2017-05-02T07:20:25Z</time>
      </trkpt>
      <trkpt lat="42.48701" lon="2.67932">
        <ele>208.35</ele>
        <time>2017-05-02T07:20:34Z</time>
      </trkpt>
      <trkpt lat="42.48695" lon="2.67909">
        <ele>209.01</ele>
        <time>2017-05-02T07:20:40Z</time>
      </trkpt>
      <trkpt lat="42.48688" lon="2.67887">
        <ele>210.21</ele>
        <time>2017-05-02T07:20:46Z</time>
      </trkpt>
      <trkpt lat="42.48674" lon="2.67857">
        <ele>211.56</ele>
        <time>2017-05-02T07:20:55Z</time>
      </trkpt>
      <trkpt lat="42.48663" lon="2.67828">
        <ele>213.4</ele>
        <time>2017-05-02T07:21:03Z</time>
      </trkpt>
      <trkpt lat="42.4865" lon="2.67798">
        <ele>214.27</ele>
        <time>2017-05-02T07:21:12Z</time>
      </trkpt>
      <trkpt lat="42.48635" lon="2.67765">
        <ele>216.02</ele>
        <time>2017-05-02T07:21:22Z</time>
      </trkpt>
      <trkpt lat="42.48619" lon="2.67731">
        <ele>217.33</ele>
        <time>2017-05-02T07:21:32Z</time>
      </trkpt>
      <trkpt lat="42.48601" lon="2.67694">
        <ele>218.39</ele>
        <time>2017-05-02T07:21:43Z</time>
      </trkpt>
      <trkpt lat="42.48589" lon="2.67665">
        <ele>219.99</ele>
        <time>2017-05-02T07:21:52Z</time>
      </trkpt>
      <trkpt lat="42.48579" lon="2.67635">
        <ele>222.58</ele>
        <time>2017-05-02T07:22:02Z</time>
      </trkpt>
      <trkpt lat="42.4858" lon="2.67607">
        <ele>224.55</ele>
        <time>2017-05-02T07:22:11Z</time>
      </trkpt>
      <trkpt lat="42.48576" lon="2.67587">
        <ele>225.67</ele>
        <time>2017-05-02T07:22:17Z</time>
      </trkpt>
      <trkpt lat="42.48564" lon="2.6758">
        <ele>226.32</ele>
        <time>2017-05-02T07:22:22Z</time>
      </trkpt>
      <trkpt lat="42.48548" lon="2.67586">
        <ele>226.96</ele>
        <time>2017-05-02T07:22:29Z</time>
      </trkpt>
      <trkpt lat="42.4853" lon="2.67592">
        <ele>229.3</ele>
        <time>2017-05-02T07:22:36Z</time>
      </trkpt>
      <trkpt lat="42.48528" lon="2.67592">
        <ele>228.82</ele>
        <time>2017-05-02T07:22:37Z</time>
      </trkpt>
      <trkpt lat="42.48527" lon="2.67581">
        <ele>230.75</ele>
        <time>2017-05-02T07:22:42Z</time>
      </trkpt>
      <trkpt lat="42.48537" lon="2.67577">
        <ele>231.56</ele>
        <time>2017-05-02T07:22:47Z</time>
      </trkpt>
      <trkpt lat="42.48566" lon="2.67567">
        <ele>232.26</ele>
        <time>2017-05-02T07:22:58Z</time>
      </trkpt>
      <trkpt lat="42.48583" lon="2.67549">
        <ele>233.56</ele>
        <time>2017-05-02T07:23:07Z</time>
      </trkpt>
      <trkpt lat="42.48595" lon="2.67544">
        <ele>234.72</ele>
        <time>2017-05-02T07:23:13Z</time>
      </trkpt>
      <trkpt lat="42.48603" lon="2.67557">
        <ele>235.7</ele>
        <time>2017-05-02T07:23:19Z</time>
      </trkpt>
      <trkpt lat="42.48603" lon="2.67563">
        <ele>236.4</ele>
        <time>2017-05-02T07:23:21Z</time>
      </trkpt>
      <trkpt lat="42.48604" lon="2.67607">
        <ele>238.63</ele>
        <time>2017-05-02T07:23:33Z</time>
      </trkpt>
      <trkpt lat="42.48611" lon="2.67624">
        <ele>239.81</ele>
        <time>2017-05-02T07:23:39Z</time>
      </trkpt>
      <trkpt lat="42.48621" lon="2.67611">
        <ele>240.88</ele>
        <time>2017-05-02T07:23:45Z</time>
      </trkpt>
      <trkpt lat="42.48624" lon="2.67579">
        <ele>242.57</ele>
        <time>2017-05-02T07:23:55Z</time>
      </trkpt>
      <trkpt lat="42.48625" lon="2.67548">
        <ele>245.22</ele>
        <time>2017-05-02T07:24:04Z</time>
      </trkpt>
      <trkpt lat="42.48625" lon="2.67545">
        <ele>245.1</ele>
        <time>2017-05-02T07:24:05Z</time>
      </trkpt>
      <trkpt lat="42.48621" lon="2.67524">
        <ele>246.65</ele>
        <time>2017-05-02T07:24:11Z</time>
      </trkpt>
      <trkpt lat="42.48605" lon="2.67503">
        <ele>247.71</ele>
        <time>2017-05-02T07:24:19Z</time>
      </trkpt>
      <trkpt lat="42.48578" lon="2.67477">
        <ele>250.43</ele>
        <time>2017-05-02T07:24:31Z</time>
      </trkpt>
      <trkpt lat="42.48549" lon="2.67459">
        <ele>251.23</ele>
        <time>2017-05-02T07:24:43Z</time>
      </trkpt>
      <trkpt lat="42.4852" lon="2.67449">
        <ele>252.79</ele>
        <time>2017-05-02T07:24:54Z</time>
      </trkpt>
      <trkpt lat="42.48505" lon="2.67434">
        <ele>253.91</ele>
        <time>2017-05-02T07:25:02Z</time>
      </trkpt>
      <trkpt lat="42.48488" lon="2.67414">
        <ele>255.83</ele>
        <time>2017-05-02T07:25:11Z</time>
      </trkpt>
      <trkpt lat="42.48491" lon="2.6741">
        <ele>255.85</ele>
        <time>2017-05-02T07:25:16Z</time>
      </trkpt>
      <trkpt lat="42.48493" lon="2.67414">
        <ele>256.24</ele>
        <time>2017-05-02T07:25:18Z</time>
      </trkpt>
      <trkpt lat="42.48499" lon="2.67423">
        <ele>256.47</ele>
        <time>2017-05-02T07:25:26Z</time>
      </trkpt>
      <trkpt lat="42.485" lon="2.67424">
        <ele>256.83</ele>
        <time>2017-05-02T07:25:45Z</time>
      </trkpt>
      <trkpt lat="42.485" lon="2.67424">
        <ele>256.64</ele>
        <time>2017-05-02T07:26:09Z</time>
      </trkpt>
      <trkpt lat="42.48499" lon="2.67424">
        <ele>257.03</ele>
        <time>2017-05-02T07:26:40Z</time>
      </trkpt>
      <trkpt lat="42.48501" lon="2.67425">
        <ele>257.08</ele>
        <time>2017-05-02T07:26:43Z</time>
      </trkpt>
      <trkpt lat="42.48511" lon="2.67434">
        <ele>257.78</ele>
        <time>2017-05-02T07:26:50Z</time>
      </trkpt>
      <trkpt lat="42.48536" lon="2.67441">
        <ele>260.15</ele>
        <time>2017-05-02T07:27:00Z</time>
      </trkpt>
      <trkpt lat="42.48571" lon="2.67442">
        <ele>260.95</ele>
        <time>2017-05-02T07:27:12Z</time>
      </trkpt>
      <trkpt lat="42.48598" lon="2.67443">
        <ele>262.57</ele>
        <time>2017-05-02T07:27:22Z</time>
      </trkpt>
      <trkpt lat="42.48625" lon="2.67434">
        <ele>264.1</ele>
        <time>2017-05-02T07:27:32Z</time>
      </trkpt>
      <trkpt lat="42.48644" lon="2.67415">
        <ele>265.78</ele>
        <time>2017-05-02T07:27:41Z</time>
      </trkpt>
      <trkpt lat="42.48662" lon="2.67392">
        <ele>266.85</ele>
        <time>2017-05-02T07:27:50Z</time>
      </trkpt>
      <trkpt lat="42.48677" lon="2.67388">
        <ele>267.59</ele>
        <time>2017-05-02T07:27:56Z</time>
      </trkpt>
      <trkpt lat="42.48689" lon="2.67409">
        <ele>268.89</ele>
        <time>2017-05-02T07:28:03Z</time>
      </trkpt>
      <trkpt lat="42.48693" lon="2.67431">
        <ele>270.17</ele>
        <time>2017-05-02T07:28:10Z</time>
      </trkpt>
      <trkpt lat="42.48692" lon="2.67463">
        <ele>272.1</ele>
        <time>2017-05-02T07:28:19Z</time>
      </trkpt>
      <trkpt lat="42.48697" lon="2.67486">
        <ele>272.68</ele>
        <time>2017-05-02T07:28:26Z</time>
      </trkpt>
      <trkpt lat="42.48707" lon="2.67496">
        <ele>273.44</ele>
        <time>2017-05-02T07:28:31Z</time>
      </trkpt>
      <trkpt lat="42.48731" lon="2.67501">
        <ele>274.73</ele>
        <time>2017-05-02T07:28:39Z</time>
      </trkpt>
      <trkpt lat="42.4876" lon="2.67511">
        <ele>276.33</ele>
        <time>2017-05-02T07:28:49Z</time>
      </trkpt>
      <trkpt lat="42.48777" lon="2.67523">
        <ele>277.09</ele>
        <time>2017-05-02T07:28:56Z</time>
      </trkpt>
      <trkpt lat="42.48803" lon="2.67539">
        <ele>278.73</ele>
        <time>2017-05-02T07:29:06Z</time>
      </trkpt>
      <trkpt lat="42.48822" lon="2.67544">
        <ele>280</ele>
        <time>2017-05-02T07:29:13Z</time>
      </trkpt>
      <trkpt lat="42.4884" lon="2.67546">
        <ele>280.71</ele>
        <time>2017-05-02T07:29:20Z</time>
      </trkpt>
      <trkpt lat="42.48851" lon="2.67557">
        <ele>281.39</ele>
        <time>2017-05-02T07:29:25Z</time>
      </trkpt>
      <trkpt lat="42.48854" lon="2.67582">
        <ele>282.33</ele>
        <time>2017-05-02T07:29:32Z</time>
      </trkpt>
      <trkpt lat="42.48848" lon="2.6761">
        <ele>283.25</ele>
        <time>2017-05-02T07:29:40Z</time>
      </trkpt>
      <trkpt lat="42.48835" lon="2.67648">
        <ele>285.01</ele>
        <time>2017-05-02T07:29:51Z</time>
      </trkpt>
      <trkpt lat="42.48823" lon="2.67682">
        <ele>285.67</ele>
        <time>2017-05-02T07:30:01Z</time>
      </trkpt>
      <trkpt lat="42.48808" lon="2.67704">
        <ele>288.05</ele>
        <time>2017-05-02T07:30:09Z</time>
      </trkpt>
      <trkpt lat="42.48792" lon="2.67737">
        <ele>290.82</ele>
        <time>2017-05-02T07:30:20Z</time>
      </trkpt>
      <trkpt lat="42.48798" lon="2.67764">
        <ele>291.1</ele>
        <time>2017-05-02T07:30:27Z</time>
      </trkpt>
      <trkpt lat="42.48818" lon="2.6778">
        <ele>291.74</ele>
        <time>2017-05-02T07:30:35Z</time>
      </trkpt>
      <trkpt lat="42.48838" lon="2.67798">
        <ele>293.95</ele>
        <time>2017-05-02T07:30:44Z</time>
      </trkpt>
      <trkpt lat="42.48848" lon="2.67829">
        <ele>295.13</ele>
        <time>2017-05-02T07:30:53Z</time>
      </trkpt>
      <trkpt lat="42.48853" lon="2.67861">
        <ele>295.79</ele>
        <time>2017-05-02T07:31:01Z</time>
      </trkpt>
      <trkpt lat="42.48856" lon="2.67888">
        <ele>296.85</ele>
        <time>2017-05-02T07:31:08Z</time>
      </trkpt>
      <trkpt lat="42.48857" lon="2.6792">
        <ele>298.59</ele>
        <time>2017-05-02T07:31:16Z</time>
      </trkpt>
      <trkpt lat="42.4886" lon="2.67964">
        <ele>300.47</ele>
        <time>2017-05-02T07:31:27Z</time>
      </trkpt>
      <trkpt lat="42.48871" lon="2.68007">
        <ele>302.82</ele>
        <time>2017-05-02T07:31:39Z</time>
      </trkpt>
      <trkpt lat="42.48886" lon="2.68014">
        <ele>303.39</ele>
        <time>2017-05-02T07:31:45Z</time>
      </trkpt>
      <trkpt lat="42.48906" lon="2.68003">
        <ele>305.21</ele>
        <time>2017-05-02T07:31:53Z</time>
      </trkpt>
      <trkpt lat="42.48927" lon="2.67985">
        <ele>306.96</ele>
        <time>2017-05-02T07:32:02Z</time>
      </trkpt>
      <trkpt lat="42.48941" lon="2.67965">
        <ele>306.93</ele>
        <time>2017-05-02T07:32:10Z</time>
      </trkpt>
      <trkpt lat="42.48955" lon="2.6794">
        <ele>309.06</ele>
        <time>2017-05-02T07:32:19Z</time>
      </trkpt>
      <trkpt lat="42.48968" lon="2.6792">
        <ele>310.19</ele>
        <time>2017-05-02T07:32:26Z</time>
      </trkpt>
      <trkpt lat="42.48984" lon="2.67926">
        <ele>311.01</ele>
        <time>2017-05-02T07:32:32Z</time>
      </trkpt>
      <trkpt lat="42.49001" lon="2.6795">
        <ele>312.12</ele>
        <time>2017-05-02T07:32:41Z</time>
      </trkpt>
      <trkpt lat="42.49019" lon="2.67973">
        <ele>313.77</ele>
        <time>2017-05-02T07:32:50Z</time>
      </trkpt>
      <trkpt lat="42.49036" lon="2.68003">
        <ele>315.18</ele>
        <time>2017-05-02T07:33:00Z</time>
      </trkpt>
      <trkpt lat="42.4904" lon="2.68033">
        <ele>316.12</ele>
        <time>2017-05-02T07:33:08Z</time>
      </trkpt>
      <trkpt lat="42.49038" lon="2.68059">
        <ele>317.34</ele>
        <time>2017-05-02T07:33:15Z</time>
      </trkpt>
      <trkpt lat="42.49043" lon="2.68092">
        <ele>318.54</ele>
        <time>2017-05-02T07:33:24Z</time>
      </trkpt>
      <trkpt lat="42.49055" lon="2.68114">
        <ele>319.3</ele>
        <time>2017-05-02T07:33:32Z</time>
      </trkpt>
      <trkpt lat="42.49066" lon="2.68131">
        <ele>320.68</ele>
        <time>2017-05-02T07:33:39Z</time>
      </trkpt>
      <trkpt lat="42.49066" lon="2.68147">
        <ele>321.4</ele>
        <time>2017-05-02T07:33:44Z</time>
      </trkpt>
      <trkpt lat="42.4906" lon="2.68167">
        <ele>322.09</ele>
        <time>2017-05-02T07:33:50Z</time>
      </trkpt>
      <trkpt lat="42.49058" lon="2.682">
        <ele>322.83</ele>
        <time>2017-05-02T07:33:58Z</time>
      </trkpt>
      <trkpt lat="42.49063" lon="2.68244">
        <ele>324.42</ele>
        <time>2017-05-02T07:34:09Z</time>
      </trkpt>
      <trkpt lat="42.49056" lon="2.68276">
        <ele>325.72</ele>
        <time>2017-05-02T07:34:18Z</time>
      </trkpt>
      <trkpt lat="42.4905" lon="2.68315">
        <ele>327.96</ele>
        <time>2017-05-02T07:34:28Z</time>
      </trkpt>
      <trkpt lat="42.49058" lon="2.68336">
        <ele>327.87</ele>
        <time>2017-05-02T07:34:35Z</time>
      </trkpt>
      <trkpt lat="42.49067" lon="2.68365">
        <ele>330.48</ele>
        <time>2017-05-02T07:34:43Z</time>
      </trkpt>
      <trkpt lat="42.49062" lon="2.68403">
        <ele>332.39</ele>
        <time>2017-05-02T07:34:53Z</time>
      </trkpt>
      <trkpt lat="42.49056" lon="2.68445">
        <ele>333.46</ele>
        <time>2017-05-02T07:35:04Z</time>
      </trkpt>
      <trkpt lat="42.49061" lon="2.6849">
        <ele>335.18</ele>
        <time>2017-05-02T07:35:16Z</time>
      </trkpt>
      <trkpt lat="42.49074" lon="2.68527">
        <ele>337.54</ele>
        <time>2017-05-02T07:35:27Z</time>
      </trkpt>
      <trkpt lat="42.49081" lon="2.68542">
        <ele>337.65</ele>
        <time>2017-05-02T07:35:35Z</time>
      </trkpt>
      <trkpt lat="42.4908" lon="2.68541">
        <ele>337.76</ele>
        <time>2017-05-02T07:35:57Z</time>
      </trkpt>
      <trkpt lat="42.49081" lon="2.68541">
        <ele>337.77</ele>
        <time>2017-05-02T07:36:28Z</time>
      </trkpt>
      <trkpt lat="42.49081" lon="2.68542">
        <ele>337.99</ele>
        <time>2017-05-02T07:36:39Z</time>
      </trkpt>
      <trkpt lat="42.49084" lon="2.6855">
        <ele>337.15</ele>
        <time>2017-05-02T07:36:44Z</time>
      </trkpt>
      <trkpt lat="42.49092" lon="2.6858">
        <ele>337.46</ele>
        <time>2017-05-02T07:36:55Z</time>
      </trkpt>
      <trkpt lat="42.49089" lon="2.68617">
        <ele>338.53</ele>
        <time>2017-05-02T07:37:01Z</time>
      </trkpt>
      <trkpt lat="42.49085" lon="2.68661">
        <ele>335.41</ele>
        <time>2017-05-02T07:37:06Z</time>
      </trkpt>
      <trkpt lat="42.49084" lon="2.6867">
        <ele>333.89</ele>
        <time>2017-05-02T07:37:07Z</time>
      </trkpt>
      <trkpt lat="42.49071" lon="2.68696">
        <ele>333.18</ele>
        <time>2017-05-02T07:37:11Z</time>
      </trkpt>
      <trkpt lat="42.49054" lon="2.68682">
        <ele>332.53</ele>
        <time>2017-05-02T07:37:14Z</time>
      </trkpt>
      <trkpt lat="42.4905" lon="2.68664">
        <ele>333.38</ele>
        <time>2017-05-02T07:37:16Z</time>
      </trkpt>
      <trkpt lat="42.49044" lon="2.68635">
        <ele>331.34</ele>
        <time>2017-05-02T07:37:19Z</time>
      </trkpt>
      <trkpt lat="42.49029" lon="2.68572">
        <ele>330.41</ele>
        <time>2017-05-02T07:37:25Z</time>
      </trkpt>
      <trkpt lat="42.49019" lon="2.68544">
        <ele>327.9</ele>
        <time>2017-05-02T07:37:28Z</time>
      </trkpt>
      <trkpt lat="42.48998" lon="2.68531">
        <ele>326.55</ele>
        <time>2017-05-02T07:37:31Z</time>
      </trkpt>
      <trkpt lat="42.48972" lon="2.68527">
        <ele>325.61</ele>
        <time>2017-05-02T07:37:34Z</time>
      </trkpt>
      <trkpt lat="42.48944" lon="2.68546">
        <ele>323.56</ele>
        <time>2017-05-02T07:37:38Z</time>
      </trkpt>
      <trkpt lat="42.48945" lon="2.68583">
        <ele>322.92</ele>
        <time>2017-05-02T07:37:41Z</time>
      </trkpt>
      <trkpt lat="42.48948" lon="2.68596">
        <ele>321.92</ele>
        <time>2017-05-02T07:37:42Z</time>
      </trkpt>
      <trkpt lat="42.48955" lon="2.68651">
        <ele>316.5</ele>
        <time>2017-05-02T07:37:46Z</time>
      </trkpt>
      <trkpt lat="42.48949" lon="2.68677">
        <ele>317.51</ele>
        <time>2017-05-02T07:37:48Z</time>
      </trkpt>
      <trkpt lat="42.48951" lon="2.68704">
        <ele>316.21</ele>
        <time>2017-05-02T07:37:50Z</time>
      </trkpt>
      <trkpt lat="42.48966" lon="2.68769">
        <ele>315.04</ele>
        <time>2017-05-02T07:37:55Z</time>
      </trkpt>
      <trkpt lat="42.48972" lon="2.68796">
        <ele>313.49</ele>
        <time>2017-05-02T07:37:57Z</time>
      </trkpt>
      <trkpt lat="42.49006" lon="2.68856">
        <ele>310.02</ele>
        <time>2017-05-02T07:38:02Z</time>
      </trkpt>
      <trkpt lat="42.49029" lon="2.6889">
        <ele>306.81</ele>
        <time>2017-05-02T07:38:05Z</time>
      </trkpt>
      <trkpt lat="42.49037" lon="2.68902">
        <ele>307.18</ele>
        <time>2017-05-02T07:38:06Z</time>
      </trkpt>
      <trkpt lat="42.49045" lon="2.68912">
        <ele>305.89</ele>
        <time>2017-05-02T07:38:07Z</time>
      </trkpt>
      <trkpt lat="42.49061" lon="2.68947">
        <ele>302.68</ele>
        <time>2017-05-02T07:38:10Z</time>
      </trkpt>
      <trkpt lat="42.49066" lon="2.68976">
        <ele>300.79</ele>
        <time>2017-05-02T07:38:12Z</time>
      </trkpt>
      <trkpt lat="42.49069" lon="2.6899">
        <ele>300.55</ele>
        <time>2017-05-02T07:38:13Z</time>
      </trkpt>
      <trkpt lat="42.49079" lon="2.69034">
        <ele>297.94</ele>
        <time>2017-05-02T07:38:16Z</time>
      </trkpt>
      <trkpt lat="42.49107" lon="2.69104">
        <ele>294.67</ele>
        <time>2017-05-02T07:38:21Z</time>
      </trkpt>
      <trkpt lat="42.49121" lon="2.6913">
        <ele>292.69</ele>
        <time>2017-05-02T07:38:23Z</time>
      </trkpt>
      <trkpt lat="42.49139" lon="2.69152">
        <ele>291.54</ele>
        <time>2017-05-02T07:38:25Z</time>
      </trkpt>
      <trkpt lat="42.49158" lon="2.69172">
        <ele>289.06</ele>
        <time>2017-05-02T07:38:27Z</time>
      </trkpt>
      <trkpt lat="42.49166" lon="2.69183">
        <ele>286.23</ele>
        <time>2017-05-02T07:38:28Z</time>
      </trkpt>
      <trkpt lat="42.49186" lon="2.69234">
        <ele>283.22</ele>
        <time>2017-05-02T07:38:32Z</time>
      </trkpt>
      <trkpt lat="42.49202" lon="2.69274">
        <ele>280.4</ele>
        <time>2017-05-02T07:38:35Z</time>
      </trkpt>
      <trkpt lat="42.49231" lon="2.69323">
        <ele>276.9</ele>
        <time>2017-05-02T07:38:39Z</time>
      </trkpt>
      <trkpt lat="42.49239" lon="2.69335">
        <ele>277.94</ele>
        <time>2017-05-02T07:38:40Z</time>
      </trkpt>
      <trkpt lat="42.49252" lon="2.69352">
        <ele>271.37</ele>
        <time>2017-05-02T07:38:42Z</time>
      </trkpt>
      <trkpt lat="42.49259" lon="2.69372">
        <ele>268.97</ele>
        <time>2017-05-02T07:38:44Z</time>
      </trkpt>
      <trkpt lat="42.49258" lon="2.69383">
        <ele>269.02</ele>
        <time>2017-05-02T07:38:45Z</time>
      </trkpt>
      <trkpt lat="42.49252" lon="2.69445">
        <ele>268.95</ele>
        <time>2017-05-02T07:38:50Z</time>
      </trkpt>
      <trkpt lat="42.49257" lon="2.69483">
        <ele>266.63</ele>
        <time>2017-05-02T07:38:53Z</time>
      </trkpt>
      <trkpt lat="42.49271" lon="2.69504">
        <ele>266.37</ele>
        <time>2017-05-02T07:38:55Z</time>
      </trkpt>
      <trkpt lat="42.49292" lon="2.69532">
        <ele>259.17</ele>
        <time>2017-05-02T07:38:58Z</time>
      </trkpt>
      <trkpt lat="42.49295" lon="2.69543">
        <ele>259.27</ele>
        <time>2017-05-02T07:38:59Z</time>
      </trkpt>
      <trkpt lat="42.49295" lon="2.69582">
        <ele>258.53</ele>
        <time>2017-05-02T07:39:02Z</time>
      </trkpt>
      <trkpt lat="42.49295" lon="2.69623">
        <ele>259.94</ele>
        <time>2017-05-02T07:39:05Z</time>
      </trkpt>
      <trkpt lat="42.49305" lon="2.6966">
        <ele>256.61</ele>
        <time>2017-05-02T07:39:08Z</time>
      </trkpt>
      <trkpt lat="42.4931" lon="2.69667">
        <ele>252.92</ele>
        <time>2017-05-02T07:39:09Z</time>
      </trkpt>
      <trkpt lat="42.49321" lon="2.6967">
        <ele>251.12</ele>
        <time>2017-05-02T07:39:11Z</time>
      </trkpt>
      <trkpt lat="42.4933" lon="2.69648">
        <ele>249.92</ele>
        <time>2017-05-02T07:39:14Z</time>
      </trkpt>
      <trkpt lat="42.49334" lon="2.69582">
        <ele>248.9</ele>
        <time>2017-05-02T07:39:20Z</time>
      </trkpt>
      <trkpt lat="42.4934" lon="2.69558">
        <ele>247.27</ele>
        <time>2017-05-02T07:39:22Z</time>
      </trkpt>
      <trkpt lat="42.49354" lon="2.69508">
        <ele>246.68</ele>
        <time>2017-05-02T07:39:26Z</time>
      </trkpt>
      <trkpt lat="42.49357" lon="2.69481">
        <ele>246.08</ele>
        <time>2017-05-02T07:39:28Z</time>
      </trkpt>
      <trkpt lat="42.49365" lon="2.69441">
        <ele>244.82</ele>
        <time>2017-05-02T07:39:31Z</time>
      </trkpt>
      <trkpt lat="42.49369" lon="2.69415">
        <ele>242.93</ele>
        <time>2017-05-02T07:39:33Z</time>
      </trkpt>
      <trkpt lat="42.49366" lon="2.6938">
        <ele>239.2</ele>
        <time>2017-05-02T07:39:36Z</time>
      </trkpt>
      <trkpt lat="42.49362" lon="2.6937">
        <ele>239.09</ele>
        <time>2017-05-02T07:39:37Z</time>
      </trkpt>
      <trkpt lat="42.49351" lon="2.69324">
        <ele>235.92</ele>
        <time>2017-05-02T07:39:41Z</time>
      </trkpt>
      <trkpt lat="42.49361" lon="2.69286">
        <ele>230.48</ele>
        <time>2017-05-02T07:39:45Z</time>
      </trkpt>
      <trkpt lat="42.49375" lon="2.69281">
        <ele>229.47</ele>
        <time>2017-05-02T07:39:47Z</time>
      </trkpt>
      <trkpt lat="42.49386" lon="2.69257">
        <ele>229.65</ele>
        <time>2017-05-02T07:39:50Z</time>
      </trkpt>
      <trkpt lat="42.49386" lon="2.69246">
        <ele>228.81</ele>
        <time>2017-05-02T07:39:51Z</time>
      </trkpt>
      <trkpt lat="42.49394" lon="2.69193">
        <ele>227.81</ele>
        <time>2017-05-02T07:39:56Z</time>
      </trkpt>
      <trkpt lat="42.49413" lon="2.69174">
        <ele>226.34</ele>
        <time>2017-05-02T07:39:59Z</time>
      </trkpt>
      <trkpt lat="42.49448" lon="2.69153">
        <ele>224.6</ele>
        <time>2017-05-02T07:40:03Z</time>
      </trkpt>
      <trkpt lat="42.49473" lon="2.69128">
        <ele>220.49</ele>
        <time>2017-05-02T07:40:07Z</time>
      </trkpt>
      <trkpt lat="42.49499" lon="2.69112">
        <ele>219.66</ele>
        <time>2017-05-02T07:40:11Z</time>
      </trkpt>
      <trkpt lat="42.49504" lon="2.69082">
        <ele>218.22</ele>
        <time>2017-05-02T07:40:14Z</time>
      </trkpt>
      <trkpt lat="42.49508" lon="2.69049">
        <ele>216.21</ele>
        <time>2017-05-02T07:40:17Z</time>
      </trkpt>
      <trkpt lat="42.49512" lon="2.69038">
        <ele>216.27</ele>
        <time>2017-05-02T07:40:18Z</time>
      </trkpt>
      <trkpt lat="42.49542" lon="2.69003">
        <ele>211.54</ele>
        <time>2017-05-02T07:40:23Z</time>
      </trkpt>
      <trkpt lat="42.49557" lon="2.68995">
        <ele>212.58</ele>
        <time>2017-05-02T07:40:25Z</time>
      </trkpt>
      <trkpt lat="42.49579" lon="2.68976">
        <ele>211.27</ele>
        <time>2017-05-02T07:40:28Z</time>
      </trkpt>
      <trkpt lat="42.49592" lon="2.68959">
        <ele>210.58</ele>
        <time>2017-05-02T07:40:30Z</time>
      </trkpt>
      <trkpt lat="42.49616" lon="2.68904">
        <ele>208.24</ele>
        <time>2017-05-02T07:40:35Z</time>
      </trkpt>
      <trkpt lat="42.49621" lon="2.68893">
        <ele>207.85</ele>
        <time>2017-05-02T07:40:36Z</time>
      </trkpt>
      <trkpt lat="42.49647" lon="2.6881">
        <ele>203.82</ele>
        <time>2017-05-02T07:40:43Z</time>
      </trkpt>
      <trkpt lat="42.4965" lon="2.68799">
        <ele>203.5</ele>
        <time>2017-05-02T07:40:44Z</time>
      </trkpt>
      <trkpt lat="42.49675" lon="2.68769">
        <ele>201.81</ele>
        <time>2017-05-02T07:40:48Z</time>
      </trkpt>
      <trkpt lat="42.49712" lon="2.6877">
        <ele>200.1</ele>
        <time>2017-05-02T07:40:53Z</time>
      </trkpt>
      <trkpt lat="42.49717" lon="2.68792">
        <ele>199.15</ele>
        <time>2017-05-02T07:40:56Z</time>
      </trkpt>
      <trkpt lat="42.4972" lon="2.68859">
        <ele>197.43</ele>
        <time>2017-05-02T07:41:05Z</time>
      </trkpt>
      <trkpt lat="42.49724" lon="2.68912">
        <ele>197.33</ele>
        <time>2017-05-02T07:41:13Z</time>
      </trkpt>
      <trkpt lat="42.49724" lon="2.68931">
        <ele>197.84</ele>
        <time>2017-05-02T07:41:16Z</time>
      </trkpt>
      <trkpt lat="42.49718" lon="2.68994">
        <ele>197.99</ele>
        <time>2017-05-02T07:41:25Z</time>
      </trkpt>
      <trkpt lat="42.49715" lon="2.69015">
        <ele>197.38</ele>
        <time>2017-05-02T07:41:28Z</time>
      </trkpt>
      <trkpt lat="42.49709" lon="2.69036">
        <ele>197.44</ele>
        <time>2017-05-02T07:41:31Z</time>
      </trkpt>
      <trkpt lat="42.49689" lon="2.69065">
        <ele>196.37</ele>
        <time>2017-05-02T07:41:36Z</time>
      </trkpt>
      <trkpt lat="42.49648" lon="2.69088">
        <ele>196.04</ele>
        <time>2017-05-02T07:41:43Z</time>
      </trkpt>
      <trkpt lat="42.49621" lon="2.69097">
        <ele>195.62</ele>
        <time>2017-05-02T07:41:47Z</time>
      </trkpt>
      <trkpt lat="42.49596" lon="2.69119">
        <ele>194.07</ele>
        <time>2017-05-02T07:41:52Z</time>
      </trkpt>
      <trkpt lat="42.4959" lon="2.69133">
        <ele>194.15</ele>
        <time>2017-05-02T07:41:54Z</time>
      </trkpt>
      <trkpt lat="42.49573" lon="2.69177">
        <ele>194.29</ele>
        <time>2017-05-02T07:42:00Z</time>
      </trkpt>
      <trkpt lat="42.49566" lon="2.6919">
        <ele>194.68</ele>
        <time>2017-05-02T07:42:02Z</time>
      </trkpt>
      <trkpt lat="42.49558" lon="2.69203">
        <ele>194.02</ele>
        <time>2017-05-02T07:42:04Z</time>
      </trkpt>
      <trkpt lat="42.49539" lon="2.69221">
        <ele>193.76</ele>
        <time>2017-05-02T07:42:08Z</time>
      </trkpt>
      <trkpt lat="42.49526" lon="2.69257">
        <ele>194.03</ele>
        <time>2017-05-02T07:42:13Z</time>
      </trkpt>
      <trkpt lat="42.49525" lon="2.69315">
        <ele>194.39</ele>
        <time>2017-05-02T07:42:20Z</time>
      </trkpt>
      <trkpt lat="42.49516" lon="2.69354">
        <ele>194.11</ele>
        <time>2017-05-02T07:42:25Z</time>
      </trkpt>
      <trkpt lat="42.49515" lon="2.69401">
        <ele>194.22</ele>
        <time>2017-05-02T07:42:31Z</time>
      </trkpt>
      <trkpt lat="42.49532" lon="2.69422">
        <ele>193.04</ele>
        <time>2017-05-02T07:42:35Z</time>
      </trkpt>
      <trkpt lat="42.49537" lon="2.69425">
        <ele>193.55</ele>
        <time>2017-05-02T07:42:36Z</time>
      </trkpt>
      <trkpt lat="42.49599" lon="2.69453">
        <ele>194.13</ele>
        <time>2017-05-02T07:42:46Z</time>
      </trkpt>
      <trkpt lat="42.49612" lon="2.6946">
        <ele>194.57</ele>
        <time>2017-05-02T07:42:48Z</time>
      </trkpt>
      <trkpt lat="42.49627" lon="2.69475">
        <ele>192.5</ele>
        <time>2017-05-02T07:42:51Z</time>
      </trkpt>
      <trkpt lat="42.49656" lon="2.69487">
        <ele>190.82</ele>
        <time>2017-05-02T07:42:56Z</time>
      </trkpt>
      <trkpt lat="42.49688" lon="2.69493">
        <ele>190.26</ele>
        <time>2017-05-02T07:43:01Z</time>
      </trkpt>
      <trkpt lat="42.497" lon="2.69503">
        <ele>189.97</ele>
        <time>2017-05-02T07:43:03Z</time>
      </trkpt>
      <trkpt lat="42.49739" lon="2.69521">
        <ele>188.24</ele>
        <time>2017-05-02T07:43:09Z</time>
      </trkpt>
      <trkpt lat="42.49761" lon="2.69551">
        <ele>188.4</ele>
        <time>2017-05-02T07:43:14Z</time>
      </trkpt>
      <trkpt lat="42.49762" lon="2.69585">
        <ele>186.19</ele>
        <time>2017-05-02T07:43:18Z</time>
      </trkpt>
      <trkpt lat="42.49758" lon="2.6961">
        <ele>184.85</ele>
        <time>2017-05-02T07:43:21Z</time>
      </trkpt>
      <trkpt lat="42.49757" lon="2.69618">
        <ele>186.21</ele>
        <time>2017-05-02T07:43:22Z</time>
      </trkpt>
      <trkpt lat="42.4975" lon="2.69641">
        <ele>184.72</ele>
        <time>2017-05-02T07:43:25Z</time>
      </trkpt>
      <trkpt lat="42.49735" lon="2.69668">
        <ele>184.53</ele>
        <time>2017-05-02T07:43:29Z</time>
      </trkpt>
      <trkpt lat="42.49698" lon="2.69704">
        <ele>184.3</ele>
        <time>2017-05-02T07:43:36Z</time>
      </trkpt>
      <trkpt lat="42.49693" lon="2.6971">
        <ele>183.51</ele>
        <time>2017-05-02T07:43:37Z</time>
      </trkpt>
      <trkpt lat="42.49677" lon="2.69739">
        <ele>184.14</ele>
        <time>2017-05-02T07:43:41Z</time>
      </trkpt>
      <trkpt lat="42.49665" lon="2.69774">
        <ele>184.09</ele>
        <time>2017-05-02T07:43:45Z</time>
      </trkpt>
      <trkpt lat="42.49647" lon="2.69801">
        <ele>183.04</ele>
        <time>2017-05-02T07:43:49Z</time>
      </trkpt>
      <trkpt lat="42.49606" lon="2.69848">
        <ele>181.83</ele>
        <time>2017-05-02T07:43:57Z</time>
      </trkpt>
      <trkpt lat="42.49554" lon="2.69905">
        <ele>180.5</ele>
        <time>2017-05-02T07:44:07Z</time>
      </trkpt>
      <trkpt lat="42.4953" lon="2.6996">
        <ele>181.7</ele>
        <time>2017-05-02T07:44:14Z</time>
      </trkpt>
      <trkpt lat="42.49524" lon="2.69976">
        <ele>181.47</ele>
        <time>2017-05-02T07:44:16Z</time>
      </trkpt>
      <trkpt lat="42.49516" lon="2.69991">
        <ele>181.63</ele>
        <time>2017-05-02T07:44:18Z</time>
      </trkpt>
      <trkpt lat="42.4947" lon="2.70054">
        <ele>179.76</ele>
        <time>2017-05-02T07:44:28Z</time>
      </trkpt>
      <trkpt lat="42.49466" lon="2.70061">
        <ele>180.1</ele>
        <time>2017-05-02T07:44:29Z</time>
      </trkpt>
      <trkpt lat="42.49458" lon="2.70075">
        <ele>179.95</ele>
        <time>2017-05-02T07:44:31Z</time>
      </trkpt>
      <trkpt lat="42.49432" lon="2.70162">
        <ele>178.89</ele>
        <time>2017-05-02T07:44:42Z</time>
      </trkpt>
      <trkpt lat="42.49415" lon="2.70224">
        <ele>174.94</ele>
        <time>2017-05-02T07:44:50Z</time>
      </trkpt>
      <trkpt lat="42.49408" lon="2.70252">
        <ele>178.12</ele>
        <time>2017-05-02T07:44:54Z</time>
      </trkpt>
      <trkpt lat="42.49396" lon="2.70295">
        <ele>176.75</ele>
        <time>2017-05-02T07:45:01Z</time>
      </trkpt>
      <trkpt lat="42.49392" lon="2.70313">
        <ele>176.28</ele>
        <time>2017-05-02T07:45:04Z</time>
      </trkpt>
      <trkpt lat="42.49393" lon="2.70327">
        <ele>176.19</ele>
        <time>2017-05-02T07:45:06Z</time>
      </trkpt>
      <trkpt lat="42.49414" lon="2.70349">
        <ele>176.4</ele>
        <time>2017-05-02T07:45:11Z</time>
      </trkpt>
      <trkpt lat="42.49468" lon="2.70363">
        <ele>175.99</ele>
        <time>2017-05-02T07:45:20Z</time>
      </trkpt>
      <trkpt lat="42.49494" lon="2.70364">
        <ele>174.62</ele>
        <time>2017-05-02T07:45:24Z</time>
      </trkpt>
      <trkpt lat="42.49526" lon="2.70363">
        <ele>171.92</ele>
        <time>2017-05-02T07:45:29Z</time>
      </trkpt>
      <trkpt lat="42.49538" lon="2.70368">
        <ele>170.71</ele>
        <time>2017-05-02T07:45:31Z</time>
      </trkpt>
      <trkpt lat="42.4956" lon="2.70388">
        <ele>170.33</ele>
        <time>2017-05-02T07:45:35Z</time>
      </trkpt>
      <trkpt lat="42.49572" lon="2.70395">
        <ele>169.71</ele>
        <time>2017-05-02T07:45:37Z</time>
      </trkpt>
      <trkpt lat="42.49585" lon="2.70397">
        <ele>168.29</ele>
        <time>2017-05-02T07:45:39Z</time>
      </trkpt>
      <trkpt lat="42.49598" lon="2.70398">
        <ele>168.82</ele>
        <time>2017-05-02T07:45:41Z</time>
      </trkpt>
      <trkpt lat="42.49662" lon="2.70418">
        <ele>168.12</ele>
        <time>2017-05-02T07:45:50Z</time>
      </trkpt>
      <trkpt lat="42.49676" lon="2.70423">
        <ele>167.29</ele>
        <time>2017-05-02T07:45:52Z</time>
      </trkpt>
      <trkpt lat="42.49716" lon="2.7044">
        <ele>166.76</ele>
        <time>2017-05-02T07:45:58Z</time>
      </trkpt>
      <trkpt lat="42.49745" lon="2.70468">
        <ele>164.81</ele>
        <time>2017-05-02T07:46:03Z</time>
      </trkpt>
      <trkpt lat="42.49772" lon="2.7051">
        <ele>163.82</ele>
        <time>2017-05-02T07:46:09Z</time>
      </trkpt>
      <trkpt lat="42.49784" lon="2.70544">
        <ele>159.73</ele>
        <time>2017-05-02T07:46:14Z</time>
      </trkpt>
      <trkpt lat="42.49793" lon="2.70595">
        <ele>161.48</ele>
        <time>2017-05-02T07:46:23Z</time>
      </trkpt>
      <trkpt lat="42.49801" lon="2.70661">
        <ele>161.03</ele>
        <time>2017-05-02T07:46:34Z</time>
      </trkpt>
      <trkpt lat="42.49805" lon="2.70701">
        <ele>163.13</ele>
        <time>2017-05-02T07:46:42Z</time>
      </trkpt>
      <trkpt lat="42.4981" lon="2.70763">
        <ele>164.65</ele>
        <time>2017-05-02T07:46:55Z</time>
      </trkpt>
      <trkpt lat="42.49811" lon="2.708">
        <ele>166.3</ele>
        <time>2017-05-02T07:47:03Z</time>
      </trkpt>
      <trkpt lat="42.49814" lon="2.70843">
        <ele>167.48</ele>
        <time>2017-05-02T07:47:12Z</time>
      </trkpt>
      <trkpt lat="42.49818" lon="2.70874">
        <ele>168.43</ele>
        <time>2017-05-02T07:47:19Z</time>
      </trkpt>
      <trkpt lat="42.49834" lon="2.709">
        <ele>170.39</ele>
        <time>2017-05-02T07:47:26Z</time>
      </trkpt>
      <trkpt lat="42.49842" lon="2.70913">
        <ele>170.49</ele>
        <time>2017-05-02T07:47:30Z</time>
      </trkpt>
      <trkpt lat="42.49836" lon="2.70942">
        <ele>170.99</ele>
        <time>2017-05-02T07:47:37Z</time>
      </trkpt>
      <trkpt lat="42.49826" lon="2.70975">
        <ele>170.83</ele>
        <time>2017-05-02T07:47:44Z</time>
      </trkpt>
      <trkpt lat="42.49821" lon="2.71006">
        <ele>170.55</ele>
        <time>2017-05-02T07:47:49Z</time>
      </trkpt>
      <trkpt lat="42.49824" lon="2.71063">
        <ele>169.74</ele>
        <time>2017-05-02T07:47:56Z</time>
      </trkpt>
      <trkpt lat="42.49826" lon="2.71081">
        <ele>169.89</ele>
        <time>2017-05-02T07:47:58Z</time>
      </trkpt>
      <trkpt lat="42.49822" lon="2.7112">
        <ele>169.15</ele>
        <time>2017-05-02T07:48:03Z</time>
      </trkpt>
      <trkpt lat="42.49808" lon="2.71176">
        <ele>168.13</ele>
        <time>2017-05-02T07:48:13Z</time>
      </trkpt>
      <trkpt lat="42.49798" lon="2.71209">
        <ele>167.94</ele>
        <time>2017-05-02T07:48:21Z</time>
      </trkpt>
      <trkpt lat="42.49799" lon="2.7121">
        <ele>167.99</ele>
        <time>2017-05-02T07:48:26Z</time>
      </trkpt>
      <trkpt lat="42.49799" lon="2.71214">
        <ele>168.25</ele>
        <time>2017-05-02T07:48:48Z</time>
      </trkpt>
      <trkpt lat="42.49799" lon="2.71215">
        <ele>168.28</ele>
        <time>2017-05-02T07:48:49Z</time>
      </trkpt>
      <trkpt lat="42.49792" lon="2.71232">
        <ele>168.49</ele>
        <time>2017-05-02T07:48:57Z</time>
      </trkpt>
      <trkpt lat="42.49778" lon="2.71244">
        <ele>169.46</ele>
        <time>2017-05-02T07:49:03Z</time>
      </trkpt>
      <trkpt lat="42.49752" lon="2.71261">
        <ele>169.3</ele>
        <time>2017-05-02T07:49:11Z</time>
      </trkpt>
      <trkpt lat="42.49735" lon="2.71306">
        <ele>168.3</ele>
        <time>2017-05-02T07:49:19Z</time>
      </trkpt>
      <trkpt lat="42.49715" lon="2.71365">
        <ele>167.67</ele>
        <time>2017-05-02T07:49:30Z</time>
      </trkpt>
      <trkpt lat="42.497" lon="2.71413">
        <ele>167.57</ele>
        <time>2017-05-02T07:49:38Z</time>
      </trkpt>
      <trkpt lat="42.49701" lon="2.71458">
        <ele>167.13</ele>
        <time>2017-05-02T07:49:45Z</time>
      </trkpt>
      <trkpt lat="42.49712" lon="2.7148">
        <ele>165.79</ele>
        <time>2017-05-02T07:49:51Z</time>
      </trkpt>
      <trkpt lat="42.49714" lon="2.71481">
        <ele>165.56</ele>
        <time>2017-05-02T07:49:55Z</time>
      </trkpt>
      <trkpt lat="42.49717" lon="2.7148">
        <ele>166.17</ele>
        <time>2017-05-02T07:50:13Z</time>
      </trkpt>
      <trkpt lat="42.49717" lon="2.71481">
        <ele>166.25</ele>
        <time>2017-05-02T07:50:33Z</time>
      </trkpt>
      <trkpt lat="42.49717" lon="2.71482">
        <ele>166.1</ele>
        <time>2017-05-02T07:50:41Z</time>
      </trkpt>
      <trkpt lat="42.49717" lon="2.71482">
        <ele>165.28</ele>
        <time>2017-05-02T07:50:54Z</time>
      </trkpt>
      <trkpt lat="42.49718" lon="2.71482">
        <ele>165.58</ele>
        <time>2017-05-02T07:51:14Z</time>
      </trkpt>
      <trkpt lat="42.49717" lon="2.71482">
        <ele>165.61</ele>
        <time>2017-05-02T07:51:33Z</time>
      </trkpt>
      <trkpt lat="42.49718" lon="2.71482">
        <ele>165.95</ele>
        <time>2017-05-02T07:52:02Z</time>
      </trkpt>
      <trkpt lat="42.49718" lon="2.7148">
        <ele>165.57</ele>
        <time>2017-05-02T07:52:36Z</time>
      </trkpt>
      <trkpt lat="42.49718" lon="2.7148">
        <ele>166.44</ele>
        <time>2017-05-02T07:53:09Z</time>
      </trkpt>
      <trkpt lat="42.49717" lon="2.71481">
        <ele>166</ele>
        <time>2017-05-02T07:53:45Z</time>
      </trkpt>
      <trkpt lat="42.49716" lon="2.71481">
        <ele>166.32</ele>
        <time>2017-05-02T07:54:23Z</time>
      </trkpt>
      <trkpt lat="42.49715" lon="2.7148">
        <ele>166.69</ele>
        <time>2017-05-02T07:55:03Z</time>
      </trkpt>
      <trkpt lat="42.49714" lon="2.71481">
        <ele>167.26</ele>
        <time>2017-05-02T07:55:23Z</time>
      </trkpt>
      <trkpt lat="42.49715" lon="2.71481">
        <ele>167.97</ele>
        <time>2017-05-02T07:55:35Z</time>
      </trkpt>
      <trkpt lat="42.49718" lon="2.7148">
        <ele>167.87</ele>
        <time>2017-05-02T07:55:47Z</time>
      </trkpt>
      <trkpt lat="42.49719" lon="2.71477">
        <ele>167.6</ele>
        <time>2017-05-02T07:55:55Z</time>
      </trkpt>
      <trkpt lat="42.49719" lon="2.71477">
        <ele>167.85</ele>
        <time>2017-05-02T07:56:01Z</time>
      </trkpt>
      <trkpt lat="42.4972" lon="2.71475">
        <ele>168.18</ele>
        <time>2017-05-02T07:56:03Z</time>
      </trkpt>
      <trkpt lat="42.49727" lon="2.71459">
        <ele>168.63</ele>
        <time>2017-05-02T07:56:11Z</time>
      </trkpt>
      <trkpt lat="42.49742" lon="2.71421">
        <ele>169.69</ele>
        <time>2017-05-02T07:56:21Z</time>
      </trkpt>
      <trkpt lat="42.49764" lon="2.71364">
        <ele>171.22</ele>
        <time>2017-05-02T07:56:33Z</time>
      </trkpt>
      <trkpt lat="42.49787" lon="2.71305">
        <ele>172.25</ele>
        <time>2017-05-02T07:56:46Z</time>
      </trkpt>
      <trkpt lat="42.49808" lon="2.71247">
        <ele>172.89</ele>
        <time>2017-05-02T07:56:58Z</time>
      </trkpt>
      <trkpt lat="42.49817" lon="2.71217">
        <ele>173.46</ele>
        <time>2017-05-02T07:57:04Z</time>
      </trkpt>
      <trkpt lat="42.49837" lon="2.71153">
        <ele>174.93</ele>
        <time>2017-05-02T07:57:16Z</time>
      </trkpt>
      <trkpt lat="42.49849" lon="2.71105">
        <ele>174.81</ele>
        <time>2017-05-02T07:57:25Z</time>
      </trkpt>
      <trkpt lat="42.4986" lon="2.71052">
        <ele>175.71</ele>
        <time>2017-05-02T07:57:35Z</time>
      </trkpt>
      <trkpt lat="42.49872" lon="2.7099">
        <ele>176.52</ele>
        <time>2017-05-02T07:57:47Z</time>
      </trkpt>
      <trkpt lat="42.49882" lon="2.70943">
        <ele>177.58</ele>
        <time>2017-05-02T07:57:56Z</time>
      </trkpt>
      <trkpt lat="42.4989" lon="2.70895">
        <ele>178.4</ele>
        <time>2017-05-02T07:58:05Z</time>
      </trkpt>
      <trkpt lat="42.49895" lon="2.70849">
        <ele>179.05</ele>
        <time>2017-05-02T07:58:13Z</time>
      </trkpt>
      <trkpt lat="42.49899" lon="2.70821">
        <ele>179.34</ele>
        <time>2017-05-02T07:58:18Z</time>
      </trkpt>
      <trkpt lat="42.49903" lon="2.70776">
        <ele>180.13</ele>
        <time>2017-05-02T07:58:26Z</time>
      </trkpt>
      <trkpt lat="42.499" lon="2.70748">
        <ele>180.86</ele>
        <time>2017-05-02T07:58:32Z</time>
      </trkpt>
      <trkpt lat="42.49893" lon="2.70721">
        <ele>181.09</ele>
        <time>2017-05-02T07:58:39Z</time>
      </trkpt>
      <trkpt lat="42.49891" lon="2.70685">
        <ele>181.22</ele>
        <time>2017-05-02T07:58:43Z</time>
      </trkpt>
      <trkpt lat="42.49882" lon="2.70626">
        <ele>181.23</ele>
        <time>2017-05-02T07:58:51Z</time>
      </trkpt>
      <trkpt lat="42.49862" lon="2.7057">
        <ele>181.23</ele>
        <time>2017-05-02T07:59:00Z</time>
      </trkpt>
      <trkpt lat="42.49838" lon="2.70518">
        <ele>181.39</ele>
        <time>2017-05-02T07:59:09Z</time>
      </trkpt>
      <trkpt lat="42.49808" lon="2.70474">
        <ele>181.03</ele>
        <time>2017-05-02T07:59:18Z</time>
      </trkpt>
      <trkpt lat="42.49771" lon="2.70434">
        <ele>181.11</ele>
        <time>2017-05-02T07:59:28Z</time>
      </trkpt>
      <trkpt lat="42.49743" lon="2.70413">
        <ele>181.69</ele>
        <time>2017-05-02T07:59:35Z</time>
      </trkpt>
      <trkpt lat="42.49698" lon="2.70391">
        <ele>181.82</ele>
        <time>2017-05-02T07:59:45Z</time>
      </trkpt>
      <trkpt lat="42.49657" lon="2.70377">
        <ele>182.71</ele>
        <time>2017-05-02T07:59:54Z</time>
      </trkpt>
      <trkpt lat="42.4961" lon="2.70364">
        <ele>184.12</ele>
        <time>2017-05-02T08:00:04Z</time>
      </trkpt>
      <trkpt lat="42.49583" lon="2.70355">
        <ele>183.54</ele>
        <time>2017-05-02T08:00:10Z</time>
      </trkpt>
      <trkpt lat="42.49575" lon="2.70353">
        <ele>184.07</ele>
        <time>2017-05-02T08:00:12Z</time>
      </trkpt>
      <trkpt lat="42.49549" lon="2.70344">
        <ele>184.32</ele>
        <time>2017-05-02T08:00:18Z</time>
      </trkpt>
      <trkpt lat="42.49527" lon="2.70338">
        <ele>184.31</ele>
        <time>2017-05-02T08:00:23Z</time>
      </trkpt>
      <trkpt lat="42.49499" lon="2.7033">
        <ele>183.99</ele>
        <time>2017-05-02T08:00:29Z</time>
      </trkpt>
      <trkpt lat="42.49455" lon="2.70319">
        <ele>184.42</ele>
        <time>2017-05-02T08:00:38Z</time>
      </trkpt>
      <trkpt lat="42.49413" lon="2.70302">
        <ele>184.53</ele>
        <time>2017-05-02T08:00:47Z</time>
      </trkpt>
      <trkpt lat="42.49377" lon="2.70287">
        <ele>185.43</ele>
        <time>2017-05-02T08:00:55Z</time>
      </trkpt>
      <trkpt lat="42.49325" lon="2.70264">
        <ele>184.46</ele>
        <time>2017-05-02T08:01:06Z</time>
      </trkpt>
      <trkpt lat="42.49282" lon="2.70242">
        <ele>184.87</ele>
        <time>2017-05-02T08:01:15Z</time>
      </trkpt>
      <trkpt lat="42.49269" lon="2.70235">
        <ele>184.56</ele>
        <time>2017-05-02T08:01:18Z</time>
      </trkpt>
      <trkpt lat="42.49252" lon="2.70224">
        <ele>184.65</ele>
        <time>2017-05-02T08:01:22Z</time>
      </trkpt>
      <trkpt lat="42.49243" lon="2.70218">
        <ele>184.58</ele>
        <time>2017-05-02T08:01:24Z</time>
      </trkpt>
      <trkpt lat="42.49198" lon="2.70194">
        <ele>184.7</ele>
        <time>2017-05-02T08:01:34Z</time>
      </trkpt>
      <trkpt lat="42.49188" lon="2.70189">
        <ele>185.12</ele>
        <time>2017-05-02T08:01:36Z</time>
      </trkpt>
      <trkpt lat="42.49141" lon="2.70162">
        <ele>184.89</ele>
        <time>2017-05-02T08:01:46Z</time>
      </trkpt>
      <trkpt lat="42.49097" lon="2.70139">
        <ele>185.04</ele>
        <time>2017-05-02T08:01:55Z</time>
      </trkpt>
      <trkpt lat="42.49059" lon="2.70116">
        <ele>184.56</ele>
        <time>2017-05-02T08:02:03Z</time>
      </trkpt>
      <trkpt lat="42.49015" lon="2.70091">
        <ele>185.73</ele>
        <time>2017-05-02T08:02:12Z</time>
      </trkpt>
      <trkpt lat="42.4901" lon="2.70088">
        <ele>185.34</ele>
        <time>2017-05-02T08:02:13Z</time>
      </trkpt>
      <trkpt lat="42.4897" lon="2.70054">
        <ele>185.66</ele>
        <time>2017-05-02T08:02:22Z</time>
      </trkpt>
      <trkpt lat="42.48913" lon="2.70006">
        <ele>185.4</ele>
        <time>2017-05-02T08:02:34Z</time>
      </trkpt>
      <trkpt lat="42.48875" lon="2.69975">
        <ele>184.54</ele>
        <time>2017-05-02T08:02:42Z</time>
      </trkpt>
      <trkpt lat="42.48831" lon="2.69939">
        <ele>185.37</ele>
        <time>2017-05-02T08:02:51Z</time>
      </trkpt>
      <trkpt lat="42.48787" lon="2.69905">
        <ele>186.41</ele>
        <time>2017-05-02T08:03:00Z</time>
      </trkpt>
      <trkpt lat="42.48734" lon="2.69866">
        <ele>185.89</ele>
        <time>2017-05-02T08:03:11Z</time>
      </trkpt>
      <trkpt lat="42.48696" lon="2.6984">
        <ele>185.77</ele>
        <time>2017-05-02T08:03:19Z</time>
      </trkpt>
      <trkpt lat="42.48677" lon="2.69826">
        <ele>185.85</ele>
        <time>2017-05-02T08:03:23Z</time>
      </trkpt>
      <trkpt lat="42.48635" lon="2.69796">
        <ele>185.91</ele>
        <time>2017-05-02T08:03:32Z</time>
      </trkpt>
      <trkpt lat="42.48589" lon="2.69762">
        <ele>186.43</ele>
        <time>2017-05-02T08:03:42Z</time>
      </trkpt>
      <trkpt lat="42.48538" lon="2.69713">
        <ele>187.58</ele>
        <time>2017-05-02T08:03:54Z</time>
      </trkpt>
      <trkpt lat="42.48482" lon="2.69657">
        <ele>187.54</ele>
        <time>2017-05-02T08:04:08Z</time>
      </trkpt>
      <trkpt lat="42.48447" lon="2.69618">
        <ele>188.22</ele>
        <time>2017-05-02T08:04:17Z</time>
      </trkpt>
      <trkpt lat="42.48427" lon="2.69597">
        <ele>189.48</ele>
        <time>2017-05-02T08:04:23Z</time>
      </trkpt>
      <trkpt lat="42.48401" lon="2.69567">
        <ele>189</ele>
        <time>2017-05-02T08:04:30Z</time>
      </trkpt>
      <trkpt lat="42.48373" lon="2.69531">
        <ele>189.71</ele>
        <time>2017-05-02T08:04:38Z</time>
      </trkpt>
      <trkpt lat="42.4835" lon="2.69488">
        <ele>190.42</ele>
        <time>2017-05-02T08:04:46Z</time>
      </trkpt>
      <trkpt lat="42.48338" lon="2.69458">
        <ele>190.62</ele>
        <time>2017-05-02T08:04:52Z</time>
      </trkpt>
      <trkpt lat="42.48325" lon="2.69418">
        <ele>190.8</ele>
        <time>2017-05-02T08:05:00Z</time>
      </trkpt>
      <trkpt lat="42.48316" lon="2.69384">
        <ele>191.7</ele>
        <time>2017-05-02T08:05:06Z</time>
      </trkpt>
      <trkpt lat="42.48309" lon="2.6933">
        <ele>192.23</ele>
        <time>2017-05-02T08:05:15Z</time>
      </trkpt>
      <trkpt lat="42.48306" lon="2.69282">
        <ele>193.25</ele>
        <time>2017-05-02T08:05:23Z</time>
      </trkpt>
      <trkpt lat="42.48309" lon="2.6923">
        <ele>193.55</ele>
        <time>2017-05-02T08:05:31Z</time>
      </trkpt>
      <trkpt lat="42.48313" lon="2.69173">
        <ele>194.42</ele>
        <time>2017-05-02T08:05:41Z</time>
      </trkpt>
      <trkpt lat="42.48315" lon="2.69127">
        <ele>195.3</ele>
        <time>2017-05-02T08:05:49Z</time>
      </trkpt>
      <trkpt lat="42.48314" lon="2.69078">
        <ele>195.77</ele>
        <time>2017-05-02T08:05:57Z</time>
      </trkpt>
      <trkpt lat="42.48313" lon="2.69066">
        <ele>196.1</ele>
        <time>2017-05-02T08:05:59Z</time>
      </trkpt>
      <trkpt lat="42.48312" lon="2.6903">
        <ele>196.35</ele>
        <time>2017-05-02T08:06:05Z</time>
      </trkpt>
      <trkpt lat="42.4831" lon="2.69006">
        <ele>196.48</ele>
        <time>2017-05-02T08:06:09Z</time>
      </trkpt>
      <trkpt lat="42.48307" lon="2.68936">
        <ele>197.82</ele>
        <time>2017-05-02T08:06:20Z</time>
      </trkpt>
      <trkpt lat="42.483" lon="2.68881">
        <ele>197.84</ele>
        <time>2017-05-02T08:06:29Z</time>
      </trkpt>
      <trkpt lat="42.48296" lon="2.68868">
        <ele>196.28</ele>
        <time>2017-05-02T08:06:32Z</time>
      </trkpt>
      <trkpt lat="42.4829" lon="2.6886">
        <ele>195.96</ele>
        <time>2017-05-02T08:06:34Z</time>
      </trkpt>
      <trkpt lat="42.48288" lon="2.68838">
        <ele>192.34</ele>
        <time>2017-05-02T08:06:37Z</time>
      </trkpt>
      <trkpt lat="42.48286" lon="2.68831">
        <ele>192.09</ele>
        <time>2017-05-02T08:06:38Z</time>
      </trkpt>
      <trkpt lat="42.48283" lon="2.68825">
        <ele>191.97</ele>
        <time>2017-05-02T08:06:39Z</time>
      </trkpt>
      <trkpt lat="42.48271" lon="2.68803">
        <ele>194.76</ele>
        <time>2017-05-02T08:06:43Z</time>
      </trkpt>
      <trkpt lat="42.48257" lon="2.68776">
        <ele>194.93</ele>
        <time>2017-05-02T08:06:49Z</time>
      </trkpt>
      <trkpt lat="42.48235" lon="2.68736">
        <ele>194.21</ele>
        <time>2017-05-02T08:06:58Z</time>
      </trkpt>
      <trkpt lat="42.48218" lon="2.68725">
        <ele>194.49</ele>
        <time>2017-05-02T08:07:03Z</time>
      </trkpt>
      <trkpt lat="42.4821" lon="2.68707">
        <ele>195.09</ele>
        <time>2017-05-02T08:07:07Z</time>
      </trkpt>
      <trkpt lat="42.48207" lon="2.6868">
        <ele>194.52</ele>
        <time>2017-05-02T08:07:13Z</time>
      </trkpt>
      <trkpt lat="42.48202" lon="2.68659">
        <ele>195.64</ele>
        <time>2017-05-02T08:07:20Z</time>
      </trkpt>
      <trkpt lat="42.48201" lon="2.68648">
        <ele>197.96</ele>
        <time>2017-05-02T08:07:24Z</time>
      </trkpt>
      <trkpt lat="42.482" lon="2.68632">
        <ele>200.23</ele>
        <time>2017-05-02T08:07:31Z</time>
      </trkpt>
      <trkpt lat="42.48191" lon="2.68605">
        <ele>200.95</ele>
        <time>2017-05-02T08:07:40Z</time>
      </trkpt>
      <trkpt lat="42.4818" lon="2.68568">
        <ele>202.2</ele>
        <time>2017-05-02T08:07:49Z</time>
      </trkpt>
      <trkpt lat="42.48169" lon="2.68511">
        <ele>203.4</ele>
        <time>2017-05-02T08:08:00Z</time>
      </trkpt>
      <trkpt lat="42.48166" lon="2.68467">
        <ele>203.95</ele>
        <time>2017-05-02T08:08:09Z</time>
      </trkpt>
      <trkpt lat="42.48166" lon="2.68412">
        <ele>204.62</ele>
        <time>2017-05-02T08:08:19Z</time>
      </trkpt>
      <trkpt lat="42.48167" lon="2.68357">
        <ele>205</ele>
        <time>2017-05-02T08:08:29Z</time>
      </trkpt>
      <trkpt lat="42.48167" lon="2.68294">
        <ele>205.59</ele>
        <time>2017-05-02T08:08:41Z</time>
      </trkpt>
      <trkpt lat="42.48166" lon="2.68237">
        <ele>206.76</ele>
        <time>2017-05-02T08:08:52Z</time>
      </trkpt>
      <trkpt lat="42.48162" lon="2.68183">
        <ele>208.08</ele>
        <time>2017-05-02T08:09:02Z</time>
      </trkpt>
      <trkpt lat="42.48159" lon="2.68137">
        <ele>208.55</ele>
        <time>2017-05-02T08:09:11Z</time>
      </trkpt>
      <trkpt lat="42.4815" lon="2.68076">
        <ele>209.55</ele>
        <time>2017-05-02T08:09:23Z</time>
      </trkpt>
      <trkpt lat="42.48139" lon="2.68015">
        <ele>210.23</ele>
        <time>2017-05-02T08:09:36Z</time>
      </trkpt>
      <trkpt lat="42.48129" lon="2.67961">
        <ele>211.19</ele>
        <time>2017-05-02T08:09:47Z</time>
      </trkpt>
      <trkpt lat="42.48121" lon="2.67938">
        <ele>212.97</ele>
        <time>2017-05-02T08:09:53Z</time>
      </trkpt>
      <trkpt lat="42.48116" lon="2.67914">
        <ele>213.07</ele>
        <time>2017-05-02T08:10:01Z</time>
      </trkpt>
      <trkpt lat="42.48109" lon="2.67893">
        <ele>210.88</ele>
        <time>2017-05-02T08:10:06Z</time>
      </trkpt>
      <trkpt lat="42.48103" lon="2.6788">
        <ele>210.67</ele>
        <time>2017-05-02T08:10:09Z</time>
      </trkpt>
      <trkpt lat="42.48097" lon="2.67845">
        <ele>209.95</ele>
        <time>2017-05-02T08:10:15Z</time>
      </trkpt>
      <trkpt lat="42.4809" lon="2.67816">
        <ele>210.69</ele>
        <time>2017-05-02T08:10:20Z</time>
      </trkpt>
      <trkpt lat="42.48086" lon="2.67788">
        <ele>212.46</ele>
        <time>2017-05-02T08:10:26Z</time>
      </trkpt>
      <trkpt lat="42.48072" lon="2.67737">
        <ele>214.07</ele>
        <time>2017-05-02T08:10:37Z</time>
      </trkpt>
      <trkpt lat="42.48051" lon="2.67689">
        <ele>215.18</ele>
        <time>2017-05-02T08:10:48Z</time>
      </trkpt>
      <trkpt lat="42.48027" lon="2.67651">
        <ele>215.72</ele>
        <time>2017-05-02T08:10:58Z</time>
      </trkpt>
      <trkpt lat="42.47991" lon="2.67614">
        <ele>217.5</ele>
        <time>2017-05-02T08:11:10Z</time>
      </trkpt>
      <trkpt lat="42.47951" lon="2.67583">
        <ele>217.81</ele>
        <time>2017-05-02T08:11:21Z</time>
      </trkpt>
      <trkpt lat="42.47912" lon="2.67563">
        <ele>218.74</ele>
        <time>2017-05-02T08:11:31Z</time>
      </trkpt>
      <trkpt lat="42.47869" lon="2.67547">
        <ele>219.08</ele>
        <time>2017-05-02T08:11:42Z</time>
      </trkpt>
      <trkpt lat="42.47827" lon="2.67532">
        <ele>219.36</ele>
        <time>2017-05-02T08:11:53Z</time>
      </trkpt>
      <trkpt lat="42.47792" lon="2.67519">
        <ele>219.98</ele>
        <time>2017-05-02T08:12:02Z</time>
      </trkpt>
      <trkpt lat="42.47761" lon="2.67501">
        <ele>220.36</ele>
        <time>2017-05-02T08:12:11Z</time>
      </trkpt>
      <trkpt lat="42.47737" lon="2.67481">
        <ele>220.11</ele>
        <time>2017-05-02T08:12:19Z</time>
      </trkpt>
      <trkpt lat="42.47729" lon="2.67474">
        <ele>220.27</ele>
        <time>2017-05-02T08:12:25Z</time>
      </trkpt>
      <trkpt lat="42.47725" lon="2.67474">
        <ele>219.88</ele>
        <time>2017-05-02T08:12:34Z</time>
      </trkpt>
      <trkpt lat="42.47724" lon="2.67474">
        <ele>219.92</ele>
        <time>2017-05-02T08:12:48Z</time>
      </trkpt>
      <trkpt lat="42.4772" lon="2.67471">
        <ele>220.03</ele>
        <time>2017-05-02T08:12:51Z</time>
      </trkpt>
      <trkpt lat="42.47699" lon="2.67448">
        <ele>222.88</ele>
        <time>2017-05-02T08:12:59Z</time>
      </trkpt>
      <trkpt lat="42.4766" lon="2.67393">
        <ele>222.09</ele>
        <time>2017-05-02T08:13:12Z</time>
      </trkpt>
      <trkpt lat="42.47623" lon="2.67332">
        <ele>223.67</ele>
        <time>2017-05-02T08:13:25Z</time>
      </trkpt>
      <trkpt lat="42.47605" lon="2.67293">
        <ele>224.46</ele>
        <time>2017-05-02T08:13:33Z</time>
      </trkpt>
      <trkpt lat="42.47594" lon="2.67258">
        <ele>224.17</ele>
        <time>2017-05-02T08:13:41Z</time>
      </trkpt>
      <trkpt lat="42.47591" lon="2.67248">
        <ele>223.39</ele>
        <time>2017-05-02T08:13:46Z</time>
      </trkpt>
      <trkpt lat="42.47586" lon="2.6724">
        <ele>223.6</ele>
        <time>2017-05-02T08:13:52Z</time>
      </trkpt>
      <trkpt lat="42.47586" lon="2.6724">
        <ele>223.24</ele>
        <time>2017-05-02T08:14:07Z</time>
      </trkpt>
      <trkpt lat="42.47586" lon="2.6724">
        <ele>223.42</ele>
        <time>2017-05-02T08:14:47Z</time>
      </trkpt>
      <trkpt lat="42.47585" lon="2.6724">
        <ele>223.64</ele>
        <time>2017-05-02T08:15:24Z</time>
      </trkpt>
      <trkpt lat="42.47584" lon="2.6724">
        <ele>223.86</ele>
        <time>2017-05-02T08:15:47Z</time>
      </trkpt>
      <trkpt lat="42.47582" lon="2.67242">
        <ele>223.77</ele>
        <time>2017-05-02T08:15:49Z</time>
      </trkpt>
      <trkpt lat="42.47569" lon="2.67251">
        <ele>224.45</ele>
        <time>2017-05-02T08:15:56Z</time>
      </trkpt>
      <trkpt lat="42.4755" lon="2.67263">
        <ele>226.32</ele>
        <time>2017-05-02T08:16:04Z</time>
      </trkpt>
      <trkpt lat="42.47524" lon="2.67277">
        <ele>228.16</ele>
        <time>2017-05-02T08:16:13Z</time>
      </trkpt>
      <trkpt lat="42.47521" lon="2.67278">
        <ele>228.14</ele>
        <time>2017-05-02T08:16:14Z</time>
      </trkpt>
      <trkpt lat="42.475" lon="2.67274">
        <ele>228.78</ele>
        <time>2017-05-02T08:16:20Z</time>
      </trkpt>
      <trkpt lat="42.4749" lon="2.67256">
        <ele>228.62</ele>
        <time>2017-05-02T08:16:24Z</time>
      </trkpt>
      <trkpt lat="42.4747" lon="2.67183">
        <ele>227.84</ele>
        <time>2017-05-02T08:16:37Z</time>
      </trkpt>
      <trkpt lat="42.47456" lon="2.67125">
        <ele>226.85</ele>
        <time>2017-05-02T08:16:46Z</time>
      </trkpt>
      <trkpt lat="42.47452" lon="2.67106">
        <ele>225.61</ele>
        <time>2017-05-02T08:16:49Z</time>
      </trkpt>
      <trkpt lat="42.47449" lon="2.67084">
        <ele>224.22</ele>
        <time>2017-05-02T08:16:52Z</time>
      </trkpt>
      <trkpt lat="42.47452" lon="2.67061">
        <ele>220.19</ele>
        <time>2017-05-02T08:16:57Z</time>
      </trkpt>
      <trkpt lat="42.47452" lon="2.67057">
        <ele>220.4</ele>
        <time>2017-05-02T08:17:02Z</time>
      </trkpt>
      <trkpt lat="42.47452" lon="2.67056">
        <ele>220.74</ele>
        <time>2017-05-02T08:17:27Z</time>
      </trkpt>
      <trkpt lat="42.47452" lon="2.67056">
        <ele>220.9</ele>
        <time>2017-05-02T08:18:04Z</time>
      </trkpt>
      <trkpt lat="42.47452" lon="2.67055">
        <ele>220.81</ele>
        <time>2017-05-02T08:18:11Z</time>
      </trkpt>
      <trkpt lat="42.47465" lon="2.67036">
        <ele>221.16</ele>
        <time>2017-05-02T08:18:20Z</time>
      </trkpt>
      <trkpt lat="42.47475" lon="2.67014">
        <ele>223.48</ele>
        <time>2017-05-02T08:18:27Z</time>
      </trkpt>
      <trkpt lat="42.4749" lon="2.66984">
        <ele>223.59</ele>
        <time>2017-05-02T08:18:34Z</time>
      </trkpt>
      <trkpt lat="42.47501" lon="2.66962">
        <ele>223.52</ele>
        <time>2017-05-02T08:18:39Z</time>
      </trkpt>
      <trkpt lat="42.47514" lon="2.66932">
        <ele>224.02</ele>
        <time>2017-05-02T08:18:45Z</time>
      </trkpt>
      <trkpt lat="42.47532" lon="2.66899">
        <ele>223.97</ele>
        <time>2017-05-02T08:18:52Z</time>
      </trkpt>
      <trkpt lat="42.47551" lon="2.66874">
        <ele>224.03</ele>
        <time>2017-05-02T08:18:58Z</time>
      </trkpt>
      <trkpt lat="42.47561" lon="2.66854">
        <ele>220.57</ele>
        <time>2017-05-02T08:19:03Z</time>
      </trkpt>
      <trkpt lat="42.47562" lon="2.66849">
        <ele>219.65</ele>
        <time>2017-05-02T08:19:05Z</time>
      </trkpt>
      <trkpt lat="42.47563" lon="2.66848">
        <ele>219.93</ele>
        <time>2017-05-02T08:19:13Z</time>
      </trkpt>
      <trkpt lat="42.47566" lon="2.66847">
        <ele>219.74</ele>
        <time>2017-05-02T08:19:45Z</time>
      </trkpt>
      <trkpt lat="42.47566" lon="2.66846">
        <ele>219.93</ele>
        <time>2017-05-02T08:20:15Z</time>
      </trkpt>
      <trkpt lat="42.47574" lon="2.6684">
        <ele>221.05</ele>
        <time>2017-05-02T08:20:21Z</time>
      </trkpt>
      <trkpt lat="42.47594" lon="2.66824">
        <ele>222.34</ele>
        <time>2017-05-02T08:20:29Z</time>
      </trkpt>
      <trkpt lat="42.47611" lon="2.66785">
        <ele>222.7</ele>
        <time>2017-05-02T08:20:38Z</time>
      </trkpt>
      <trkpt lat="42.47626" lon="2.66735">
        <ele>223.35</ele>
        <time>2017-05-02T08:20:47Z</time>
      </trkpt>
      <trkpt lat="42.47642" lon="2.66684">
        <ele>225.13</ele>
        <time>2017-05-02T08:20:57Z</time>
      </trkpt>
      <trkpt lat="42.47655" lon="2.66609">
        <ele>225.92</ele>
        <time>2017-05-02T08:21:10Z</time>
      </trkpt>
      <trkpt lat="42.47654" lon="2.66545">
        <ele>226.97</ele>
        <time>2017-05-02T08:21:21Z</time>
      </trkpt>
      <trkpt lat="42.4764" lon="2.66483">
        <ele>227.05</ele>
        <time>2017-05-02T08:21:32Z</time>
      </trkpt>
      <trkpt lat="42.47614" lon="2.66409">
        <ele>229.02</ele>
        <time>2017-05-02T08:21:46Z</time>
      </trkpt>
      <trkpt lat="42.476" lon="2.66364">
        <ele>229.42</ele>
        <time>2017-05-02T08:21:56Z</time>
      </trkpt>
      <trkpt lat="42.47594" lon="2.66349">
        <ele>228.18</ele>
        <time>2017-05-02T08:22:02Z</time>
      </trkpt>
      <trkpt lat="42.47593" lon="2.66347">
        <ele>228.58</ele>
        <time>2017-05-02T08:22:08Z</time>
      </trkpt>
      <trkpt lat="42.47593" lon="2.66346">
        <ele>228.82</ele>
        <time>2017-05-02T08:22:34Z</time>
      </trkpt>
      <trkpt lat="42.47594" lon="2.66347">
        <ele>229.01</ele>
        <time>2017-05-02T08:23:00Z</time>
      </trkpt>
      <trkpt lat="42.47591" lon="2.6634">
        <ele>229.63</ele>
        <time>2017-05-02T08:23:04Z</time>
      </trkpt>
      <trkpt lat="42.47571" lon="2.66312">
        <ele>230.07</ele>
        <time>2017-05-02T08:23:14Z</time>
      </trkpt>
      <trkpt lat="42.47544" lon="2.66277">
        <ele>232.6</ele>
        <time>2017-05-02T08:23:24Z</time>
      </trkpt>
      <trkpt lat="42.47511" lon="2.66241">
        <ele>233.21</ele>
        <time>2017-05-02T08:23:35Z</time>
      </trkpt>
      <trkpt lat="42.47482" lon="2.66205">
        <ele>234.53</ele>
        <time>2017-05-02T08:23:46Z</time>
      </trkpt>
      <trkpt lat="42.47455" lon="2.6617">
        <ele>236.12</ele>
        <time>2017-05-02T08:23:56Z</time>
      </trkpt>
      <trkpt lat="42.47421" lon="2.66126">
        <ele>238.03</ele>
        <time>2017-05-02T08:24:08Z</time>
      </trkpt>
      <trkpt lat="42.47404" lon="2.66107">
        <ele>239.14</ele>
        <time>2017-05-02T08:24:14Z</time>
      </trkpt>
      <trkpt lat="42.47371" lon="2.6608">
        <ele>239.59</ele>
        <time>2017-05-02T08:24:23Z</time>
      </trkpt>
      <trkpt lat="42.47322" lon="2.66049">
        <ele>238.61</ele>
        <time>2017-05-02T08:24:33Z</time>
      </trkpt>
      <trkpt lat="42.47317" lon="2.66046">
        <ele>238.61</ele>
        <time>2017-05-02T08:24:34Z</time>
      </trkpt>
      <trkpt lat="42.47276" lon="2.66023">
        <ele>237.39</ele>
        <time>2017-05-02T08:24:43Z</time>
      </trkpt>
      <trkpt lat="42.47271" lon="2.6602">
        <ele>237.61</ele>
        <time>2017-05-02T08:24:44Z</time>
      </trkpt>
      <trkpt lat="42.47258" lon="2.66009">
        <ele>238.52</ele>
        <time>2017-05-02T08:24:47Z</time>
      </trkpt>
      <trkpt lat="42.47241" lon="2.6599">
        <ele>238.1</ele>
        <time>2017-05-02T08:24:51Z</time>
      </trkpt>
      <trkpt lat="42.47217" lon="2.65948">
        <ele>236.78</ele>
        <time>2017-05-02T08:24:59Z</time>
      </trkpt>
      <trkpt lat="42.47208" lon="2.65925">
        <ele>237.5</ele>
        <time>2017-05-02T08:25:03Z</time>
      </trkpt>
      <trkpt lat="42.47179" lon="2.65883">
        <ele>238.88</ele>
        <time>2017-05-02T08:25:12Z</time>
      </trkpt>
      <trkpt lat="42.47169" lon="2.65868">
        <ele>238.65</ele>
        <time>2017-05-02T08:25:15Z</time>
      </trkpt>
      <trkpt lat="42.47159" lon="2.65854">
        <ele>238.73</ele>
        <time>2017-05-02T08:25:18Z</time>
      </trkpt>
      <trkpt lat="42.47128" lon="2.65818">
        <ele>240.4</ele>
        <time>2017-05-02T08:25:27Z</time>
      </trkpt>
      <trkpt lat="42.47096" lon="2.65779">
        <ele>241.69</ele>
        <time>2017-05-02T08:25:36Z</time>
      </trkpt>
      <trkpt lat="42.47069" lon="2.65731">
        <ele>242.57</ele>
        <time>2017-05-02T08:25:45Z</time>
      </trkpt>
      <trkpt lat="42.47065" lon="2.65719">
        <ele>242.83</ele>
        <time>2017-05-02T08:25:47Z</time>
      </trkpt>
      <trkpt lat="42.47056" lon="2.65696">
        <ele>243.09</ele>
        <time>2017-05-02T08:25:51Z</time>
      </trkpt>
      <trkpt lat="42.47035" lon="2.65639">
        <ele>245.22</ele>
        <time>2017-05-02T08:26:01Z</time>
      </trkpt>
      <trkpt lat="42.4703" lon="2.65623">
        <ele>246.35</ele>
        <time>2017-05-02T08:26:04Z</time>
      </trkpt>
      <trkpt lat="42.4703" lon="2.65586">
        <ele>245.56</ele>
        <time>2017-05-02T08:26:10Z</time>
      </trkpt>
      <trkpt lat="42.47034" lon="2.65568">
        <ele>244.66</ele>
        <time>2017-05-02T08:26:13Z</time>
      </trkpt>
      <trkpt lat="42.47034" lon="2.65538">
        <ele>242.75</ele>
        <time>2017-05-02T08:26:18Z</time>
      </trkpt>
      <trkpt lat="42.47025" lon="2.65477">
        <ele>243.86</ele>
        <time>2017-05-02T08:26:29Z</time>
      </trkpt>
      <trkpt lat="42.47023" lon="2.65466">
        <ele>244.74</ele>
        <time>2017-05-02T08:26:31Z</time>
      </trkpt>
      <trkpt lat="42.47015" lon="2.65418">
        <ele>244.81</ele>
        <time>2017-05-02T08:26:39Z</time>
      </trkpt>
      <trkpt lat="42.4701" lon="2.65395">
        <ele>245.05</ele>
        <time>2017-05-02T08:26:43Z</time>
      </trkpt>
      <trkpt lat="42.47004" lon="2.65364">
        <ele>247.03</ele>
        <time>2017-05-02T08:26:49Z</time>
      </trkpt>
      <trkpt lat="42.46995" lon="2.65323">
        <ele>247.19</ele>
        <time>2017-05-02T08:26:56Z</time>
      </trkpt>
      <trkpt lat="42.46994" lon="2.6531">
        <ele>247.22</ele>
        <time>2017-05-02T08:26:58Z</time>
      </trkpt>
      <trkpt lat="42.47005" lon="2.65255">
        <ele>247.74</ele>
        <time>2017-05-02T08:27:07Z</time>
      </trkpt>
      <trkpt lat="42.47006" lon="2.65249">
        <ele>247.94</ele>
        <time>2017-05-02T08:27:08Z</time>
      </trkpt>
      <trkpt lat="42.47009" lon="2.65223">
        <ele>247.84</ele>
        <time>2017-05-02T08:27:12Z</time>
      </trkpt>
      <trkpt lat="42.47003" lon="2.65183">
        <ele>248.38</ele>
        <time>2017-05-02T08:27:19Z</time>
      </trkpt>
      <trkpt lat="42.46998" lon="2.65145">
        <ele>248.33</ele>
        <time>2017-05-02T08:27:25Z</time>
      </trkpt>
      <trkpt lat="42.46994" lon="2.65131">
        <ele>248.38</ele>
        <time>2017-05-02T08:27:27Z</time>
      </trkpt>
      <trkpt lat="42.46987" lon="2.65064">
        <ele>247.81</ele>
        <time>2017-05-02T08:27:36Z</time>
      </trkpt>
      <trkpt lat="42.46983" lon="2.65">
        <ele>247</ele>
        <time>2017-05-02T08:27:44Z</time>
      </trkpt>
      <trkpt lat="42.46982" lon="2.64993">
        <ele>246.48</ele>
        <time>2017-05-02T08:27:45Z</time>
      </trkpt>
      <trkpt lat="42.4696" lon="2.64935">
        <ele>248.07</ele>
        <time>2017-05-02T08:27:54Z</time>
      </trkpt>
      <trkpt lat="42.46954" lon="2.64924">
        <ele>247.84</ele>
        <time>2017-05-02T08:27:56Z</time>
      </trkpt>
      <trkpt lat="42.46945" lon="2.64891">
        <ele>248.84</ele>
        <time>2017-05-02T08:28:02Z</time>
      </trkpt>
      <trkpt lat="42.46939" lon="2.6486">
        <ele>250.23</ele>
        <time>2017-05-02T08:28:08Z</time>
      </trkpt>
      <trkpt lat="42.46925" lon="2.64813">
        <ele>251.37</ele>
        <time>2017-05-02T08:28:18Z</time>
      </trkpt>
      <trkpt lat="42.46908" lon="2.64768">
        <ele>252.34</ele>
        <time>2017-05-02T08:28:27Z</time>
      </trkpt>
      <trkpt lat="42.46881" lon="2.64716">
        <ele>253.68</ele>
        <time>2017-05-02T08:28:38Z</time>
      </trkpt>
      <trkpt lat="42.46858" lon="2.6468">
        <ele>253.92</ele>
        <time>2017-05-02T08:28:46Z</time>
      </trkpt>
      <trkpt lat="42.46838" lon="2.64656">
        <ele>254.15</ele>
        <time>2017-05-02T08:28:52Z</time>
      </trkpt>
      <trkpt lat="42.46799" lon="2.64623">
        <ele>255.2</ele>
        <time>2017-05-02T08:29:03Z</time>
      </trkpt>
      <trkpt lat="42.46777" lon="2.64599">
        <ele>254.53</ele>
        <time>2017-05-02T08:29:11Z</time>
      </trkpt>
      <trkpt lat="42.46775" lon="2.64596">
        <ele>254.55</ele>
        <time>2017-05-02T08:29:15Z</time>
      </trkpt>
      <trkpt lat="42.46775" lon="2.64597">
        <ele>254.73</ele>
        <time>2017-05-02T08:29:38Z</time>
      </trkpt>
      <trkpt lat="42.46776" lon="2.64597">
        <ele>254.84</ele>
        <time>2017-05-02T08:30:20Z</time>
      </trkpt>
      <trkpt lat="42.46775" lon="2.64598">
        <ele>254.81</ele>
        <time>2017-05-02T08:31:04Z</time>
      </trkpt>
      <trkpt lat="42.46776" lon="2.64598">
        <ele>254.89</ele>
        <time>2017-05-02T08:31:30Z</time>
      </trkpt>
      <trkpt lat="42.46775" lon="2.64579">
        <ele>255.9</ele>
        <time>2017-05-02T08:31:38Z</time>
      </trkpt>
      <trkpt lat="42.46771" lon="2.64561">
        <ele>256.31</ele>
        <time>2017-05-02T08:31:42Z</time>
      </trkpt>
      <trkpt lat="42.46749" lon="2.64509">
        <ele>257.55</ele>
        <time>2017-05-02T08:31:53Z</time>
      </trkpt>
      <trkpt lat="42.46748" lon="2.64483">
        <ele>257.61</ele>
        <time>2017-05-02T08:31:58Z</time>
      </trkpt>
      <trkpt lat="42.4675" lon="2.64478">
        <ele>257.33</ele>
        <time>2017-05-02T08:31:59Z</time>
      </trkpt>
      <trkpt lat="42.46769" lon="2.64435">
        <ele>258.34</ele>
        <time>2017-05-02T08:32:09Z</time>
      </trkpt>
      <trkpt lat="42.46771" lon="2.64415">
        <ele>259.55</ele>
        <time>2017-05-02T08:32:16Z</time>
      </trkpt>
      <trkpt lat="42.46768" lon="2.6441">
        <ele>259.5</ele>
        <time>2017-05-02T08:32:23Z</time>
      </trkpt>
      <trkpt lat="42.46767" lon="2.64408">
        <ele>258.73</ele>
        <time>2017-05-02T08:32:53Z</time>
      </trkpt>
      <trkpt lat="42.46763" lon="2.64408">
        <ele>259.02</ele>
        <time>2017-05-02T08:32:56Z</time>
      </trkpt>
      <trkpt lat="42.46742" lon="2.6442">
        <ele>257.03</ele>
        <time>2017-05-02T08:33:02Z</time>
      </trkpt>
      <trkpt lat="42.46733" lon="2.64429">
        <ele>255.85</ele>
        <time>2017-05-02T08:33:04Z</time>
      </trkpt>
      <trkpt lat="42.46714" lon="2.64438">
        <ele>256.77</ele>
        <time>2017-05-02T08:33:08Z</time>
      </trkpt>
      <trkpt lat="42.46704" lon="2.64437">
        <ele>258.06</ele>
        <time>2017-05-02T08:33:11Z</time>
      </trkpt>
      <trkpt lat="42.46696" lon="2.64433">
        <ele>259.55</ele>
        <time>2017-05-02T08:33:14Z</time>
      </trkpt>
      <trkpt lat="42.46677" lon="2.64421">
        <ele>261.53</ele>
        <time>2017-05-02T08:33:21Z</time>
      </trkpt>
      <trkpt lat="42.46647" lon="2.6441">
        <ele>261.78</ele>
        <time>2017-05-02T08:33:29Z</time>
      </trkpt>
      <trkpt lat="42.46612" lon="2.64402">
        <ele>259.87</ele>
        <time>2017-05-02T08:33:36Z</time>
      </trkpt>
      <trkpt lat="42.4659" lon="2.64401">
        <ele>261.18</ele>
        <time>2017-05-02T08:33:40Z</time>
      </trkpt>
      <trkpt lat="42.46573" lon="2.64401">
        <ele>261.3</ele>
        <time>2017-05-02T08:33:43Z</time>
      </trkpt>
      <trkpt lat="42.46537" lon="2.64417">
        <ele>259.42</ele>
        <time>2017-05-02T08:33:50Z</time>
      </trkpt>
      <trkpt lat="42.46529" lon="2.64422">
        <ele>260.1</ele>
        <time>2017-05-02T08:33:52Z</time>
      </trkpt>
      <trkpt lat="42.46513" lon="2.64428">
        <ele>260.5</ele>
        <time>2017-05-02T08:33:56Z</time>
      </trkpt>
      <trkpt lat="42.46475" lon="2.64436">
        <ele>261.38</ele>
        <time>2017-05-02T08:34:04Z</time>
      </trkpt>
      <trkpt lat="42.46462" lon="2.64438">
        <ele>261.32</ele>
        <time>2017-05-02T08:34:08Z</time>
      </trkpt>
      <trkpt lat="42.4645" lon="2.64431">
        <ele>259.28</ele>
        <time>2017-05-02T08:34:12Z</time>
      </trkpt>
      <trkpt lat="42.46424" lon="2.64403">
        <ele>262.18</ele>
        <time>2017-05-02T08:34:21Z</time>
      </trkpt>
      <trkpt lat="42.46405" lon="2.64402">
        <ele>263.36</ele>
        <time>2017-05-02T08:34:27Z</time>
      </trkpt>
      <trkpt lat="42.46403" lon="2.64403">
        <ele>263.5</ele>
        <time>2017-05-02T08:34:28Z</time>
      </trkpt>
      <trkpt lat="42.46398" lon="2.64423">
        <ele>263.95</ele>
        <time>2017-05-02T08:34:32Z</time>
      </trkpt>
      <trkpt lat="42.4639" lon="2.64485">
        <ele>265.28</ele>
        <time>2017-05-02T08:34:42Z</time>
      </trkpt>
      <trkpt lat="42.46386" lon="2.64512">
        <ele>265.22</ele>
        <time>2017-05-02T08:34:46Z</time>
      </trkpt>
      <trkpt lat="42.46374" lon="2.64529">
        <ele>265.36</ele>
        <time>2017-05-02T08:34:50Z</time>
      </trkpt>
      <trkpt lat="42.46357" lon="2.64518">
        <ele>265.51</ele>
        <time>2017-05-02T08:34:54Z</time>
      </trkpt>
      <trkpt lat="42.46351" lon="2.64516">
        <ele>265.32</ele>
        <time>2017-05-02T08:34:55Z</time>
      </trkpt>
      <trkpt lat="42.46314" lon="2.6449">
        <ele>262.96</ele>
        <time>2017-05-02T08:35:01Z</time>
      </trkpt>
      <trkpt lat="42.46304" lon="2.64473">
        <ele>264.13</ele>
        <time>2017-05-02T08:35:03Z</time>
      </trkpt>
      <trkpt lat="42.46274" lon="2.6443">
        <ele>261.12</ele>
        <time>2017-05-02T08:35:09Z</time>
      </trkpt>
      <trkpt lat="42.46265" lon="2.64421">
        <ele>260.32</ele>
        <time>2017-05-02T08:35:11Z</time>
      </trkpt>
      <trkpt lat="42.46232" lon="2.64392">
        <ele>262.08</ele>
        <time>2017-05-02T08:35:20Z</time>
      </trkpt>
      <trkpt lat="42.46208" lon="2.64382">
        <ele>263.32</ele>
        <time>2017-05-02T08:35:26Z</time>
      </trkpt>
      <trkpt lat="42.46157" lon="2.64363">
        <ele>264.72</ele>
        <time>2017-05-02T08:35:39Z</time>
      </trkpt>
      <trkpt lat="42.46142" lon="2.64357">
        <ele>266.7</ele>
        <time>2017-05-02T08:35:43Z</time>
      </trkpt>
      <trkpt lat="42.46126" lon="2.64357">
        <ele>268.34</ele>
        <time>2017-05-02T08:35:47Z</time>
      </trkpt>
      <trkpt lat="42.46118" lon="2.64358">
        <ele>269.55</ele>
        <time>2017-05-02T08:35:49Z</time>
      </trkpt>
      <trkpt lat="42.46095" lon="2.64353">
        <ele>270.98</ele>
        <time>2017-05-02T08:35:56Z</time>
      </trkpt>
      <trkpt lat="42.46085" lon="2.64333">
        <ele>271.8</ele>
        <time>2017-05-02T08:36:02Z</time>
      </trkpt>
      <trkpt lat="42.46087" lon="2.64313">
        <ele>271.7</ele>
        <time>2017-05-02T08:36:07Z</time>
      </trkpt>
      <trkpt lat="42.46088" lon="2.64271">
        <ele>270.36</ele>
        <time>2017-05-02T08:36:15Z</time>
      </trkpt>
      <trkpt lat="42.46086" lon="2.64241">
        <ele>268.19</ele>
        <time>2017-05-02T08:36:21Z</time>
      </trkpt>
      <trkpt lat="42.46086" lon="2.6424">
        <ele>267.93</ele>
        <time>2017-05-02T08:36:22Z</time>
      </trkpt>
      <trkpt lat="42.46086" lon="2.6424">
        <ele>267.89</ele>
        <time>2017-05-02T08:36:32Z</time>
      </trkpt>
      <trkpt lat="42.46085" lon="2.64234">
        <ele>268.47</ele>
        <time>2017-05-02T08:36:47Z</time>
      </trkpt>
      <trkpt lat="42.46085" lon="2.64234">
        <ele>268.07</ele>
        <time>2017-05-02T08:37:01Z</time>
      </trkpt>
      <trkpt lat="42.46086" lon="2.64236">
        <ele>268.63</ele>
        <time>2017-05-02T08:37:43Z</time>
      </trkpt>
      <trkpt lat="42.46085" lon="2.64235">
        <ele>268.24</ele>
        <time>2017-05-02T08:38:05Z</time>
      </trkpt>
      <trkpt lat="42.46085" lon="2.64236">
        <ele>267.92</ele>
        <time>2017-05-02T08:38:28Z</time>
      </trkpt>
      <trkpt lat="42.46084" lon="2.64237">
        <ele>268.23</ele>
        <time>2017-05-02T08:38:57Z</time>
      </trkpt>
      <trkpt lat="42.46085" lon="2.64236">
        <ele>268.18</ele>
        <time>2017-05-02T08:39:15Z</time>
      </trkpt>
      <trkpt lat="42.46086" lon="2.64236">
        <ele>268.43</ele>
        <time>2017-05-02T08:39:42Z</time>
      </trkpt>
      <trkpt lat="42.46086" lon="2.64236">
        <ele>268.54</ele>
        <time>2017-05-02T08:40:14Z</time>
      </trkpt>
      <trkpt lat="42.46085" lon="2.64236">
        <ele>268.22</ele>
        <time>2017-05-02T08:40:53Z</time>
      </trkpt>
    </trkseg>
  </trk>
</gpx>